<?xml version='1.0' encoding='UTF-8'?><gpx version="1.1" creator="JPX - https://github.com/jenetics/jpx" xmlns="http://www.topografix.com/GPX/1/1"><trk><trkseg><trkpt lat="43.78140216475721" lon="7.665228532231282"><ele>13.0</ele><time>2026-04-02T14:03:46.998Z</time></trkpt><trkpt lat="43.78146602844594" lon="7.665272231738378"><ele>13.0</ele><time>2026-04-02T14:03:47.998Z</time></trkpt><trkpt lat="43.78153596360184" lon="7.665329700219121"><ele>13.0</ele><time>2026-04-02T14:03:48.998Z</time></trkpt><trkpt lat="43.78162802048841" lon="7.665381459700322"><ele>13.0</ele><time>2026-04-02T14:03:49.998Z</time></trkpt><trkpt lat="43.78172344314634" lon="7.665415390982494"><ele>13.0</ele><time>2026-04-02T14:03:50.998Z</time></trkpt><trkpt lat="43.781810475823235" lon="7.6655204050090315"><ele>14.75</ele><time>2026-04-02T14:03:51.998Z</time></trkpt><trkpt lat="43.78193954056396" lon="7.665540401113934"><ele>16.5</ele><time>2026-04-02T14:03:52.998Z</time></trkpt><trkpt lat="43.782054164199266" lon="7.665621464003333"><ele>18.25</ele><time>2026-04-02T14:03:53.998Z</time></trkpt><trkpt lat="43.782171585173955" lon="7.665692336286164"><ele>20.0</ele><time>2026-04-02T14:03:54.998Z</time></trkpt><trkpt lat="43.782278802009884" lon="7.665767468135571"><ele>20.0</ele><time>2026-04-02T14:03:55.998Z</time></trkpt><trkpt lat="43.78238866095143" lon="7.665839446722712"><ele>20.0</ele><time>2026-04-02T14:03:56.998Z</time></trkpt><trkpt lat="43.78248524459291" lon="7.6659046643253586"><ele>20.0</ele><time>2026-04-02T14:03:57.998Z</time></trkpt><trkpt lat="43.78260247726576" lon="7.665967426910212"><ele>20.0</ele><time>2026-04-02T14:03:58.998Z</time></trkpt><trkpt lat="43.782708806331044" lon="7.6660280193860695"><ele>21.666666666666668</ele><time>2026-04-02T14:03:59.998Z</time></trkpt><trkpt lat="43.782796756429434" lon="7.666071062285402"><ele>23.333333333333336</ele><time>2026-04-02T14:04:00.998Z</time></trkpt><trkpt lat="43.78287292395684" lon="7.666109378433941"><ele>25.0</ele><time>2026-04-02T14:04:01.998Z</time></trkpt><trkpt lat="43.78294393520918" lon="7.666145662631589"><ele>26.666666666666668</ele><time>2026-04-02T14:04:03.998Z</time></trkpt><trkpt lat="43.7830026506995" lon="7.6661988216778045"><ele>28.333333333333332</ele><time>2026-04-02T14:04:06.998Z</time></trkpt><trkpt lat="43.783068020821034" lon="7.666222993113513"><ele>30.0</ele><time>2026-04-02T14:04:11.998Z</time></trkpt><trkpt lat="43.783123654932254" lon="7.6660486957734415"><ele>30.0</ele><time>2026-04-02T14:04:12.998Z</time></trkpt><trkpt lat="43.78315068727207" lon="7.665929792010827"><ele>30.0</ele><time>2026-04-02T14:04:13.998Z</time></trkpt><trkpt lat="43.783187653847584" lon="7.665839234833237"><ele>30.0</ele><time>2026-04-02T14:04:14.998Z</time></trkpt><trkpt lat="43.783225156345054" lon="7.6657229693705045"><ele>30.0</ele><time>2026-04-02T14:04:15.998Z</time></trkpt><trkpt lat="43.78326345032471" lon="7.665606261074327"><ele>30.0</ele><time>2026-04-02T14:04:16.998Z</time></trkpt><trkpt lat="43.78330053327824" lon="7.665495960711635"><ele>30.0</ele><time>2026-04-02T14:04:17.998Z</time></trkpt><trkpt lat="43.78334739394509" lon="7.6653981819318275"><ele>30.0</ele><time>2026-04-02T14:04:18.998Z</time></trkpt><trkpt lat="43.78338508188177" lon="7.6652889511341415"><ele>30.0</ele><time>2026-04-02T14:04:19.998Z</time></trkpt><trkpt lat="43.783418169838114" lon="7.665173240689427"><ele>30.0</ele><time>2026-04-02T14:04:20.998Z</time></trkpt><trkpt lat="43.78345583043407" lon="7.665038156305979"><ele>30.0</ele><time>2026-04-02T14:04:21.998Z</time></trkpt><trkpt lat="43.78348846014692" lon="7.664921749907185"><ele>30.0</ele><time>2026-04-02T14:04:22.998Z</time></trkpt><trkpt lat="43.78351936303936" lon="7.664796946428842"><ele>30.8</ele><time>2026-04-02T14:04:23.998Z</time></trkpt><trkpt lat="43.783540157038985" lon="7.664652773484511"><ele>31.6</ele><time>2026-04-02T14:04:24.998Z</time></trkpt><trkpt lat="43.78356039011801" lon="7.6645300135089425"><ele>32.4</ele><time>2026-04-02T14:04:25.998Z</time></trkpt><trkpt lat="43.78357712586384" lon="7.6644167727364945"><ele>33.2</ele><time>2026-04-02T14:04:26.998Z</time></trkpt><trkpt lat="43.78358985973705" lon="7.664324073269938"><ele>34.0</ele><time>2026-04-02T14:04:27.998Z</time></trkpt><trkpt lat="43.78359419363401" lon="7.664147580162849"><ele>34.0</ele><time>2026-04-02T14:04:29.998Z</time></trkpt><trkpt lat="43.783596583754104" lon="7.664049148988628"><ele>34.0</ele><time>2026-04-02T14:04:30.998Z</time></trkpt><trkpt lat="43.783597756746396" lon="7.663957451114499"><ele>34.0</ele><time>2026-04-02T14:04:31.998Z</time></trkpt><trkpt lat="43.78360415803741" lon="7.663852697244564"><ele>34.0</ele><time>2026-04-02T14:04:32.998Z</time></trkpt><trkpt lat="43.78360839315098" lon="7.663752387076771"><ele>34.0</ele><time>2026-04-02T14:04:33.998Z</time></trkpt><trkpt lat="43.78360541908021" lon="7.663634027274288"><ele>34.0</ele><time>2026-04-02T14:04:34.998Z</time></trkpt><trkpt lat="43.78360896385132" lon="7.663510407948372"><ele>33.4</ele><time>2026-04-02T14:04:35.998Z</time></trkpt><trkpt lat="43.783608375457206" lon="7.663383992987838"><ele>32.8</ele><time>2026-04-02T14:04:36.997Z</time></trkpt><trkpt lat="43.78361640378139" lon="7.663254110273676"><ele>32.2</ele><time>2026-04-02T14:04:37.997Z</time></trkpt><trkpt lat="43.78362135128238" lon="7.6631224451769"><ele>31.6</ele><time>2026-04-02T14:04:38.997Z</time></trkpt><trkpt lat="43.783625458975266" lon="7.663009453968393"><ele>31.0</ele><time>2026-04-02T14:04:39.997Z</time></trkpt><trkpt lat="43.783628671298764" lon="7.662882702324821"><ele>30.0</ele><time>2026-04-02T14:04:40.997Z</time></trkpt><trkpt lat="43.78362818976895" lon="7.662761693306367"><ele>29.0</ele><time>2026-04-02T14:04:41.997Z</time></trkpt><trkpt lat="43.78363476318363" lon="7.662632702792293"><ele>28.0</ele><time>2026-04-02T14:04:42.997Z</time></trkpt><trkpt lat="43.78364595922191" lon="7.662500952302982"><ele>27.0</ele><time>2026-04-02T14:04:43.997Z</time></trkpt><trkpt lat="43.78365527327851" lon="7.662374288474436"><ele>26.0</ele><time>2026-04-02T14:04:44.997Z</time></trkpt><trkpt lat="43.78368883612867" lon="7.662134092105451"><ele>25.999999999999996</ele><time>2026-04-02T14:04:46.997Z</time></trkpt><trkpt lat="43.783716164102856" lon="7.662002866858931"><ele>26.0</ele><time>2026-04-02T14:04:47.997Z</time></trkpt><trkpt lat="43.78374609229794" lon="7.661878064559807"><ele>26.0</ele><time>2026-04-02T14:04:48.997Z</time></trkpt><trkpt lat="43.78378480471754" lon="7.661781271967393"><ele>26.0</ele><time>2026-04-02T14:04:49.997Z</time></trkpt><trkpt lat="43.78383029488588" lon="7.661680454330312"><ele>25.999999999999996</ele><time>2026-04-02T14:04:50.997Z</time></trkpt><trkpt lat="43.78387676084748" lon="7.661578507995952"><ele>26.0</ele><time>2026-04-02T14:04:51.997Z</time></trkpt><trkpt lat="43.78393268392173" lon="7.661470964631004"><ele>24.6</ele><time>2026-04-02T14:04:52.997Z</time></trkpt><trkpt lat="43.78398619442669" lon="7.661350561444726"><ele>23.200000000000003</ele><time>2026-04-02T14:04:53.997Z</time></trkpt><trkpt lat="43.78404768807266" lon="7.661215695209946"><ele>21.799999999999997</ele><time>2026-04-02T14:04:54.997Z</time></trkpt><trkpt lat="43.78410545229686" lon="7.6610824396076405"><ele>20.4</ele><time>2026-04-02T14:04:55.997Z</time></trkpt><trkpt lat="43.78415821317102" lon="7.660949413651942"><ele>19.0</ele><time>2026-04-02T14:04:56.997Z</time></trkpt><trkpt lat="43.78420438347862" lon="7.660824702437467"><ele>19.6</ele><time>2026-04-02T14:04:57.997Z</time></trkpt><trkpt lat="43.784250858749566" lon="7.660714306840072"><ele>20.2</ele><time>2026-04-02T14:04:58.997Z</time></trkpt><trkpt lat="43.784289544949495" lon="7.660599821690643"><ele>20.8</ele><time>2026-04-02T14:04:59.997Z</time></trkpt><trkpt lat="43.78432188193664" lon="7.66048118468522"><ele>21.400000000000002</ele><time>2026-04-02T14:05:00.997Z</time></trkpt><trkpt lat="43.78434877844736" lon="7.660356836571274"><ele>22.0</ele><time>2026-04-02T14:05:01.997Z</time></trkpt><trkpt lat="43.78438033899732" lon="7.660246223475867"><ele>22.0</ele><time>2026-04-02T14:05:02.997Z</time></trkpt><trkpt lat="43.784396051808926" lon="7.660141672669008"><ele>22.0</ele><time>2026-04-02T14:05:03.997Z</time></trkpt><trkpt lat="43.78440897061781" lon="7.6600321275031"><ele>22.0</ele><time>2026-04-02T14:05:04.997Z</time></trkpt><trkpt lat="43.78442273318902" lon="7.65991482597665"><ele>22.0</ele><time>2026-04-02T14:05:05.997Z</time></trkpt><trkpt lat="43.784431668695504" lon="7.659800914605686"><ele>22.0</ele><time>2026-04-02T14:05:06.997Z</time></trkpt><trkpt lat="43.78444341995527" lon="7.659698255006971"><ele>22.0</ele><time>2026-04-02T14:05:07.997Z</time></trkpt><trkpt lat="43.784470736376164" lon="7.659613411557389"><ele>22.0</ele><time>2026-04-02T14:05:08.997Z</time></trkpt><trkpt lat="43.7845411214377" lon="7.6595084715201835"><ele>22.0</ele><time>2026-04-02T14:05:10.997Z</time></trkpt><trkpt lat="43.78464634756679" lon="7.659332558306127"><ele>22.0</ele><time>2026-04-02T14:05:12.997Z</time></trkpt><trkpt lat="43.78467959681901" lon="7.659243654241512"><ele>22.0</ele><time>2026-04-02T14:05:13.997Z</time></trkpt><trkpt lat="43.78474694151096" lon="7.659181465140182"><ele>22.0</ele><time>2026-04-02T14:05:14.997Z</time></trkpt><trkpt lat="43.784844374947674" lon="7.65928405930201"><ele>22.0</ele><time>2026-04-02T14:05:15.997Z</time></trkpt><trkpt lat="43.78491492844187" lon="7.659314494825772"><ele>22.0</ele><time>2026-04-02T14:05:16.997Z</time></trkpt><trkpt lat="43.78498398825309" lon="7.659367899379379"><ele>22.0</ele><time>2026-04-02T14:05:17.997Z</time></trkpt><trkpt lat="43.785053744717096" lon="7.659444795621511"><ele>22.0</ele><time>2026-04-02T14:05:18.997Z</time></trkpt><trkpt lat="43.78515317070981" lon="7.659500030108648"><ele>22.0</ele><time>2026-04-02T14:05:19.997Z</time></trkpt><trkpt lat="43.78525376847699" lon="7.659592678556406"><ele>25.6</ele><time>2026-04-02T14:05:20.997Z</time></trkpt><trkpt lat="43.785338912654915" lon="7.659668764934949"><ele>29.200000000000003</ele><time>2026-04-02T14:05:21.997Z</time></trkpt><trkpt lat="43.78538462207406" lon="7.659780416275426"><ele>32.8</ele><time>2026-04-02T14:05:22.997Z</time></trkpt><trkpt lat="43.78539378297384" lon="7.659902146950654"><ele>36.4</ele><time>2026-04-02T14:05:23.997Z</time></trkpt><trkpt lat="43.78537820200764" lon="7.660052299100367"><ele>40.0</ele><time>2026-04-02T14:05:24.997Z</time></trkpt><trkpt lat="43.785378285455565" lon="7.660190338630735"><ele>42.0</ele><time>2026-04-02T14:05:25.997Z</time></trkpt><trkpt lat="43.785389595956" lon="7.660345939672968"><ele>44.0</ele><time>2026-04-02T14:05:26.997Z</time></trkpt><trkpt lat="43.785390928619016" lon="7.660476934528341"><ele>46.0</ele><time>2026-04-02T14:05:27.996Z</time></trkpt><trkpt lat="43.78539820194614" lon="7.660579889619393"><ele>48.0</ele><time>2026-04-02T14:05:28.996Z</time></trkpt><trkpt lat="43.78548991762974" lon="7.660621643475624"><ele>49.99999999999999</ele><time>2026-04-02T14:05:30.996Z</time></trkpt><trkpt lat="43.78554874807447" lon="7.660569125213983"><ele>52.0</ele><time>2026-04-02T14:05:31.996Z</time></trkpt><trkpt lat="43.78558381153239" lon="7.660436008880762"><ele>52.0</ele><time>2026-04-02T14:05:32.996Z</time></trkpt><trkpt lat="43.78563635933519" lon="7.660312006476968"><ele>52.0</ele><time>2026-04-02T14:05:33.996Z</time></trkpt><trkpt lat="43.78569659219521" lon="7.660153258518967"><ele>52.0</ele><time>2026-04-02T14:05:34.996Z</time></trkpt><trkpt lat="43.785757989721354" lon="7.659994735359547"><ele>52.0</ele><time>2026-04-02T14:05:35.996Z</time></trkpt><trkpt lat="43.78581888045397" lon="7.659842173950547"><ele>52.75</ele><time>2026-04-02T14:05:36.996Z</time></trkpt><trkpt lat="43.78588701582142" lon="7.6596979914334575"><ele>53.5</ele><time>2026-04-02T14:05:37.996Z</time></trkpt><trkpt lat="43.78596455562289" lon="7.659590390068634"><ele>54.25</ele><time>2026-04-02T14:05:38.996Z</time></trkpt><trkpt lat="43.7860506418769" lon="7.659480645395233"><ele>55.0</ele><time>2026-04-02T14:05:39.996Z</time></trkpt><trkpt lat="43.786128695837974" lon="7.6593794331012095"><ele>55.0</ele><time>2026-04-02T14:05:40.996Z</time></trkpt><trkpt lat="43.78620789725886" lon="7.6592765057930094"><ele>55.0</ele><time>2026-04-02T14:05:41.996Z</time></trkpt><trkpt lat="43.78628333636838" lon="7.659176392643157"><ele>55.0</ele><time>2026-04-02T14:05:42.996Z</time></trkpt><trkpt lat="43.786359260842254" lon="7.659072231803456"><ele>55.0</ele><time>2026-04-02T14:05:43.996Z</time></trkpt><trkpt lat="43.786418961239974" lon="7.658955492332537"><ele>55.0</ele><time>2026-04-02T14:05:44.996Z</time></trkpt><trkpt lat="43.78649299471789" lon="7.658867333557789"><ele>54.99999999999999</ele><time>2026-04-02T14:05:45.996Z</time></trkpt><trkpt lat="43.78653437179844" lon="7.658783482118387"><ele>55.0</ele><time>2026-04-02T14:05:46.996Z</time></trkpt><trkpt lat="43.78656768172074" lon="7.658702744837715"><ele>55.0</ele><time>2026-04-02T14:05:47.996Z</time></trkpt><trkpt lat="43.786629613789785" lon="7.658617494717356"><ele>55.0</ele><time>2026-04-02T14:05:49.996Z</time></trkpt><trkpt lat="43.78670561829864" lon="7.658671341405621"><ele>54.99999999999999</ele><time>2026-04-02T14:05:51.996Z</time></trkpt><trkpt lat="43.786698239006896" lon="7.658769257018912"><ele>55.0</ele><time>2026-04-02T14:05:52.996Z</time></trkpt><trkpt lat="43.786646812771174" lon="7.658916180836933"><ele>54.99999999999999</ele><time>2026-04-02T14:05:54.996Z</time></trkpt><trkpt lat="43.78663181455067" lon="7.659048254512572"><ele>55.0</ele><time>2026-04-02T14:05:55.996Z</time></trkpt><trkpt lat="43.78660543563601" lon="7.659157613898363"><ele>55.0</ele><time>2026-04-02T14:05:56.996Z</time></trkpt><trkpt lat="43.786581692626136" lon="7.659266664218824"><ele>55.0</ele><time>2026-04-02T14:05:57.996Z</time></trkpt><trkpt lat="43.786558997767614" lon="7.659370073608097"><ele>54.99999999999999</ele><time>2026-04-02T14:05:59.996Z</time></trkpt><trkpt lat="43.78653729277529" lon="7.659510302759418"><ele>55.0</ele><time>2026-04-02T14:06:02.996Z</time></trkpt><trkpt lat="43.78651342666017" lon="7.659660030197225"><ele>56.4</ele><time>2026-04-02T14:06:04.996Z</time></trkpt><trkpt lat="43.7864989961011" lon="7.659815132446081"><ele>57.8</ele><time>2026-04-02T14:06:06.996Z</time></trkpt><trkpt lat="43.78649888999718" lon="7.659942719790639"><ele>59.2</ele><time>2026-04-02T14:06:08.996Z</time></trkpt><trkpt lat="43.78648714486488" lon="7.660073262865716"><ele>60.6</ele><time>2026-04-02T14:06:10.996Z</time></trkpt><trkpt lat="43.78648006279005" lon="7.660216603070312"><ele>62.0</ele><time>2026-04-02T14:06:12.996Z</time></trkpt><trkpt lat="43.786481485409674" lon="7.66034659481555"><ele>62.0</ele><time>2026-04-02T14:06:14.996Z</time></trkpt><trkpt lat="43.786566753928504" lon="7.660371795681977"><ele>62.0</ele><time>2026-04-02T14:06:16.996Z</time></trkpt><trkpt lat="43.78666116291092" lon="7.660246077563986"><ele>62.0</ele><time>2026-04-02T14:06:18.996Z</time></trkpt><trkpt lat="43.786682073114704" lon="7.660124450228244"><ele>62.0</ele><time>2026-04-02T14:06:19.995Z</time></trkpt><trkpt lat="43.78673174959078" lon="7.660025250315535"><ele>62.0</ele><time>2026-04-02T14:06:20.995Z</time></trkpt><trkpt lat="43.78677644329764" lon="7.65991009687639"><ele>62.00000000000001</ele><time>2026-04-02T14:06:21.995Z</time></trkpt><trkpt lat="43.78682365123587" lon="7.659794512361182"><ele>62.0</ele><time>2026-04-02T14:06:22.995Z</time></trkpt><trkpt lat="43.7868673989758" lon="7.659689433692078"><ele>62.0</ele><time>2026-04-02T14:06:23.995Z</time></trkpt><trkpt lat="43.78690688912979" lon="7.659596337272091"><ele>62.0</ele><time>2026-04-02T14:06:24.995Z</time></trkpt><trkpt lat="43.78695044180307" lon="7.6594976214917905"><ele>62.00000000000001</ele><time>2026-04-02T14:06:25.995Z</time></trkpt><trkpt lat="43.786989930271595" lon="7.659378976699082"><ele>62.0</ele><time>2026-04-02T14:06:26.995Z</time></trkpt><trkpt lat="43.78703618410263" lon="7.659295261636058"><ele>61.833333333333336</ele><time>2026-04-02T14:06:27.995Z</time></trkpt><trkpt lat="43.78709486944341" lon="7.659242919039315"><ele>61.66666666666667</ele><time>2026-04-02T14:06:28.995Z</time></trkpt><trkpt lat="43.78716745196408" lon="7.659230183308992"><ele>61.5</ele><time>2026-04-02T14:06:29.995Z</time></trkpt><trkpt lat="43.78723813169351" lon="7.6592582201956505"><ele>61.33333333333333</ele><time>2026-04-02T14:06:30.995Z</time></trkpt><trkpt lat="43.78730642878514" lon="7.6592598269842895"><ele>61.166666666666664</ele><time>2026-04-02T14:06:31.995Z</time></trkpt><trkpt lat="43.78737212516729" lon="7.659393255367469"><ele>61.0</ele><time>2026-04-02T14:06:32.995Z</time></trkpt><trkpt lat="43.78742851323963" lon="7.659494858670495"><ele>62.8</ele><time>2026-04-02T14:06:33.995Z</time></trkpt><trkpt lat="43.78749440780861" lon="7.6596070425614675"><ele>64.6</ele><time>2026-04-02T14:06:34.995Z</time></trkpt><trkpt lat="43.78755659021636" lon="7.659720495620369"><ele>66.4</ele><time>2026-04-02T14:06:35.995Z</time></trkpt><trkpt lat="43.78760586560852" lon="7.659833641392753"><ele>68.2</ele><time>2026-04-02T14:06:36.995Z</time></trkpt><trkpt lat="43.78765433759387" lon="7.659956379627875"><ele>70.0</ele><time>2026-04-02T14:06:37.995Z</time></trkpt><trkpt lat="43.787688175619635" lon="7.660077961146921"><ele>70.0</ele><time>2026-04-02T14:06:38.995Z</time></trkpt><trkpt lat="43.787723083012445" lon="7.660196193396748"><ele>70.0</ele><time>2026-04-02T14:06:39.995Z</time></trkpt><trkpt lat="43.78776821946842" lon="7.660303936460401"><ele>70.0</ele><time>2026-04-02T14:06:40.995Z</time></trkpt><trkpt lat="43.787841380794745" lon="7.660396435965217"><ele>70.0</ele><time>2026-04-02T14:06:41.995Z</time></trkpt><trkpt lat="43.78793062367326" lon="7.660467837712597"><ele>70.0</ele><time>2026-04-02T14:06:42.995Z</time></trkpt><trkpt lat="43.78802251263822" lon="7.66053757050819"><ele>72.6</ele><time>2026-04-02T14:06:43.995Z</time></trkpt><trkpt lat="43.78811132040374" lon="7.6605996563229795"><ele>75.2</ele><time>2026-04-02T14:06:44.995Z</time></trkpt><trkpt lat="43.78820285032361" lon="7.66066478997826"><ele>77.80000000000001</ele><time>2026-04-02T14:06:45.995Z</time></trkpt><trkpt lat="43.78829813549556" lon="7.660736317850924"><ele>80.4</ele><time>2026-04-02T14:06:46.995Z</time></trkpt><trkpt lat="43.78839416343559" lon="7.660814278856931"><ele>83.0</ele><time>2026-04-02T14:06:47.995Z</time></trkpt><trkpt lat="43.78848518775167" lon="7.6608878479831555"><ele>84.4</ele><time>2026-04-02T14:06:48.995Z</time></trkpt><trkpt lat="43.78857142066913" lon="7.6609580292365225"><ele>85.80000000000001</ele><time>2026-04-02T14:06:49.995Z</time></trkpt><trkpt lat="43.788666704609454" lon="7.661031580204962"><ele>87.2</ele><time>2026-04-02T14:06:50.995Z</time></trkpt><trkpt lat="43.78875812293547" lon="7.66111305326512"><ele>88.6</ele><time>2026-04-02T14:06:51.995Z</time></trkpt><trkpt lat="43.78884096974802" lon="7.661214501328061"><ele>90.0</ele><time>2026-04-02T14:06:52.995Z</time></trkpt><trkpt lat="43.78891985055192" lon="7.661325349096204"><ele>90.0</ele><time>2026-04-02T14:06:53.995Z</time></trkpt><trkpt lat="43.788985719954596" lon="7.661447828567203"><ele>90.0</ele><time>2026-04-02T14:06:54.995Z</time></trkpt><trkpt lat="43.789042993423735" lon="7.661568621211372"><ele>90.0</ele><time>2026-04-02T14:06:55.995Z</time></trkpt><trkpt lat="43.789097161151155" lon="7.661690222251196"><ele>90.0</ele><time>2026-04-02T14:06:56.995Z</time></trkpt><trkpt lat="43.78915325050987" lon="7.661803740192191"><ele>90.0</ele><time>2026-04-02T14:06:57.995Z</time></trkpt><trkpt lat="43.78921408884948" lon="7.661914339833783"><ele>91.83333333333333</ele><time>2026-04-02T14:06:58.995Z</time></trkpt><trkpt lat="43.7892791576828" lon="7.661998162526748"><ele>93.66666666666666</ele><time>2026-04-02T14:06:59.995Z</time></trkpt><trkpt lat="43.78934717229375" lon="7.662053374960467"><ele>95.5</ele><time>2026-04-02T14:07:00.995Z</time></trkpt><trkpt lat="43.78940446441625" lon="7.662101186801014"><ele>97.33333333333333</ele><time>2026-04-02T14:07:01.995Z</time></trkpt><trkpt lat="43.789461771586346" lon="7.662149461334018"><ele>99.16666666666666</ele><time>2026-04-02T14:07:02.995Z</time></trkpt><trkpt lat="43.78949384682807" lon="7.6622984333871935"><ele>101.0</ele><time>2026-04-02T14:07:04.995Z</time></trkpt><trkpt lat="43.78943477616885" lon="7.66236898462234"><ele>100.99999999999999</ele><time>2026-04-02T14:07:06.995Z</time></trkpt><trkpt lat="43.7893499429188" lon="7.662320323365261"><ele>101.0</ele><time>2026-04-02T14:07:07.995Z</time></trkpt><trkpt lat="43.789308220201455" lon="7.662219129653155"><ele>101.0</ele><time>2026-04-02T14:07:08.995Z</time></trkpt><trkpt lat="43.789244326783844" lon="7.6621431540196845"><ele>101.0</ele><time>2026-04-02T14:07:09.995Z</time></trkpt><trkpt lat="43.78917377344568" lon="7.662061016200056"><ele>100.99999999999999</ele><time>2026-04-02T14:07:10.995Z</time></trkpt><trkpt lat="43.789096922469426" lon="7.66199169841289"><ele>101.0</ele><time>2026-04-02T14:07:11.994Z</time></trkpt><trkpt lat="43.789019572671734" lon="7.661928384633647"><ele>99.16666666666666</ele><time>2026-04-02T14:07:12.994Z</time></trkpt><trkpt lat="43.78894706417223" lon="7.661871736732087"><ele>97.33333333333333</ele><time>2026-04-02T14:07:13.994Z</time></trkpt><trkpt lat="43.78886982449596" lon="7.661816156309789"><ele>95.5</ele><time>2026-04-02T14:07:14.994Z</time></trkpt><trkpt lat="43.78879569244566" lon="7.661773833606619"><ele>93.66666666666666</ele><time>2026-04-02T14:07:15.994Z</time></trkpt><trkpt lat="43.78872788104753" lon="7.6617392920176"><ele>91.83333333333333</ele><time>2026-04-02T14:07:16.994Z</time></trkpt><trkpt lat="43.78865262703067" lon="7.661699021848831"><ele>90.0</ele><time>2026-04-02T14:07:17.994Z</time></trkpt><trkpt lat="43.78858066416855" lon="7.661674934623915"><ele>92.2</ele><time>2026-04-02T14:07:18.994Z</time></trkpt><trkpt lat="43.78846035623151" lon="7.661691832175306"><ele>94.4</ele><time>2026-04-02T14:07:20.994Z</time></trkpt><trkpt lat="43.788420824492725" lon="7.661831865117206"><ele>96.6</ele><time>2026-04-02T14:07:22.994Z</time></trkpt><trkpt lat="43.78844932168744" lon="7.661929371059865"><ele>98.8</ele><time>2026-04-02T14:07:23.994Z</time></trkpt><trkpt lat="43.788524560497414" lon="7.661993448187549"><ele>101.0</ele><time>2026-04-02T14:07:24.994Z</time></trkpt><trkpt lat="43.78863573997763" lon="7.661991540719104"><ele>101.83333333333333</ele><time>2026-04-02T14:07:25.994Z</time></trkpt><trkpt lat="43.788702039455195" lon="7.662028206832438"><ele>102.66666666666666</ele><time>2026-04-02T14:07:26.994Z</time></trkpt><trkpt lat="43.78875735584319" lon="7.662093912968933"><ele>103.5</ele><time>2026-04-02T14:07:27.994Z</time></trkpt><trkpt lat="43.78880099871207" lon="7.662188345056874"><ele>104.33333333333334</ele><time>2026-04-02T14:07:28.994Z</time></trkpt><trkpt lat="43.78880608051489" lon="7.6623241254187215"><ele>105.16666666666667</ele><time>2026-04-02T14:07:29.994Z</time></trkpt><trkpt lat="43.78881842213775" lon="7.662486691405716"><ele>106.0</ele><time>2026-04-02T14:07:30.994Z</time></trkpt><trkpt lat="43.78883448760495" lon="7.662689277951371"><ele>108.0</ele><time>2026-04-02T14:07:31.994Z</time></trkpt><trkpt lat="43.78887177790919" lon="7.662905214823265"><ele>110.0</ele><time>2026-04-02T14:07:32.994Z</time></trkpt><trkpt lat="43.788875553542404" lon="7.663119043899857"><ele>112.0</ele><time>2026-04-02T14:07:33.994Z</time></trkpt><trkpt lat="43.78889117801657" lon="7.663293948411243"><ele>114.0</ele><time>2026-04-02T14:07:34.994Z</time></trkpt><trkpt lat="43.78890443244375" lon="7.663454677384601"><ele>114.0</ele><time>2026-04-02T14:07:35.994Z</time></trkpt><trkpt lat="43.78892273986575" lon="7.663610727694055"><ele>114.0</ele><time>2026-04-02T14:07:36.994Z</time></trkpt><trkpt lat="43.78893944808423" lon="7.6637517376042315"><ele>114.0</ele><time>2026-04-02T14:07:37.994Z</time></trkpt><trkpt lat="43.78896055450183" lon="7.663885992349949"><ele>114.0</ele><time>2026-04-02T14:07:38.994Z</time></trkpt><trkpt lat="43.78897552196058" lon="7.663998738692743"><ele>114.0</ele><time>2026-04-02T14:07:39.994Z</time></trkpt><trkpt lat="43.7889827761002" lon="7.664100143860729"><ele>114.2</ele><time>2026-04-02T14:07:40.994Z</time></trkpt><trkpt lat="43.788964667259286" lon="7.664264703489033"><ele>114.4</ele><time>2026-04-02T14:07:42.994Z</time></trkpt><trkpt lat="43.78903757170136" lon="7.664379062083892"><ele>114.6</ele><time>2026-04-02T14:07:44.994Z</time></trkpt><trkpt lat="43.789121401212846" lon="7.664396661411278"><ele>114.8</ele><time>2026-04-02T14:07:45.994Z</time></trkpt><trkpt lat="43.78921469391666" lon="7.66440745710107"><ele>115.0</ele><time>2026-04-02T14:07:46.994Z</time></trkpt><trkpt lat="43.789322870886295" lon="7.664430356333482"><ele>117.66666666666667</ele><time>2026-04-02T14:07:47.994Z</time></trkpt><trkpt lat="43.78946379056589" lon="7.6644435955714805"><ele>120.33333333333334</ele><time>2026-04-02T14:07:48.994Z</time></trkpt><trkpt lat="43.78961534921022" lon="7.664434282292173"><ele>123.0</ele><time>2026-04-02T14:07:49.994Z</time></trkpt><trkpt lat="43.789778340509024" lon="7.664413737420809"><ele>123.0</ele><time>2026-04-02T14:07:50.994Z</time></trkpt><trkpt lat="43.78994427373951" lon="7.664370967316371"><ele>123.0</ele><time>2026-04-02T14:07:51.994Z</time></trkpt><trkpt lat="43.79010676456405" lon="7.664311146719557"><ele>123.0</ele><time>2026-04-02T14:07:52.994Z</time></trkpt><trkpt lat="43.79024484310059" lon="7.664263804551662"><ele>121.25</ele><time>2026-04-02T14:07:53.994Z</time></trkpt><trkpt lat="43.790378125909044" lon="7.6642426363063825"><ele>119.5</ele><time>2026-04-02T14:07:54.994Z</time></trkpt><trkpt lat="43.79049573477677" lon="7.664296624906082"><ele>117.75</ele><time>2026-04-02T14:07:55.994Z</time></trkpt><trkpt lat="43.7906170867616" lon="7.66440817223633"><ele>116.0</ele><time>2026-04-02T14:07:56.994Z</time></trkpt><trkpt lat="43.790725205663044" lon="7.664543552892415"><ele>122.33333333333333</ele><time>2026-04-02T14:07:57.994Z</time></trkpt><trkpt lat="43.79084281783195" lon="7.664679213400355"><ele>128.66666666666666</ele><time>2026-04-02T14:07:58.994Z</time></trkpt><trkpt lat="43.79096382280889" lon="7.664806747692935"><ele>135.0</ele><time>2026-04-02T14:07:59.994Z</time></trkpt><trkpt lat="43.791098285708934" lon="7.664949887912372"><ele>135.25</ele><time>2026-04-02T14:08:00.994Z</time></trkpt><trkpt lat="43.79122114422449" lon="7.665085460987669"><ele>135.5</ele><time>2026-04-02T14:08:01.994Z</time></trkpt><trkpt lat="43.79132751550045" lon="7.66518835341245"><ele>135.75</ele><time>2026-04-02T14:08:02.994Z</time></trkpt><trkpt lat="43.79143815578077" lon="7.6652544443769015"><ele>136.0</ele><time>2026-04-02T14:08:03.993Z</time></trkpt><trkpt lat="43.791562837371416" lon="7.665234330688317"><ele>136.0</ele><time>2026-04-02T14:08:04.993Z</time></trkpt><trkpt lat="43.791685509736205" lon="7.665168966528279"><ele>136.0</ele><time>2026-04-02T14:08:05.993Z</time></trkpt><trkpt lat="43.79182770444199" lon="7.665045435174378"><ele>136.0</ele><time>2026-04-02T14:08:06.993Z</time></trkpt><trkpt lat="43.79195471666441" lon="7.664948306876367"><ele>136.0</ele><time>2026-04-02T14:08:07.993Z</time></trkpt><trkpt lat="43.792058229229525" lon="7.664858123544514"><ele>136.0</ele><time>2026-04-02T14:08:08.993Z</time></trkpt><trkpt lat="43.79214694450563" lon="7.664809825238324"><ele>136.0</ele><time>2026-04-02T14:08:09.993Z</time></trkpt><trkpt lat="43.792231589334364" lon="7.664800365850164"><ele>136.0</ele><time>2026-04-02T14:08:10.993Z</time></trkpt><trkpt lat="43.79230618401171" lon="7.664829380773155"><ele>136.0</ele><time>2026-04-02T14:08:11.993Z</time></trkpt><trkpt lat="43.79238428827691" lon="7.664904185398654"><ele>136.0</ele><time>2026-04-02T14:08:12.993Z</time></trkpt><trkpt lat="43.79246205145235" lon="7.665034303387322"><ele>136.0</ele><time>2026-04-02T14:08:13.993Z</time></trkpt><trkpt lat="43.79254944072235" lon="7.665208454290971"><ele>136.0</ele><time>2026-04-02T14:08:14.993Z</time></trkpt><trkpt lat="43.792642506449404" lon="7.665424727907629"><ele>136.0</ele><time>2026-04-02T14:08:15.993Z</time></trkpt><trkpt lat="43.79275341819639" lon="7.665634561015626"><ele>137.0</ele><time>2026-04-02T14:08:16.993Z</time></trkpt><trkpt lat="43.79286888373553" lon="7.665825952922002"><ele>138.0</ele><time>2026-04-02T14:08:17.993Z</time></trkpt><trkpt lat="43.793007494459395" lon="7.665974444710407"><ele>139.0</ele><time>2026-04-02T14:08:18.993Z</time></trkpt><trkpt lat="43.79314843685474" lon="7.666082564248059"><ele>144.66666666666669</ele><time>2026-04-02T14:08:19.993Z</time></trkpt><trkpt lat="43.79328978860194" lon="7.666151338822238"><ele>150.33333333333334</ele><time>2026-04-02T14:08:20.993Z</time></trkpt><trkpt lat="43.7934396118129" lon="7.6661713056887555"><ele>156.0</ele><time>2026-04-02T14:08:21.993Z</time></trkpt><trkpt lat="43.79359142522949" lon="7.666169232234029"><ele>156.0</ele><time>2026-04-02T14:08:22.993Z</time></trkpt><trkpt lat="43.79375485705664" lon="7.666139622936583"><ele>156.0</ele><time>2026-04-02T14:08:23.993Z</time></trkpt><trkpt lat="43.79390956504364" lon="7.66612237809749"><ele>156.0</ele><time>2026-04-02T14:08:24.993Z</time></trkpt><trkpt lat="43.794065321996015" lon="7.666099353080933"><ele>152.0</ele><time>2026-04-02T14:08:25.993Z</time></trkpt><trkpt lat="43.79422168204462" lon="7.666086669393819"><ele>148.0</ele><time>2026-04-02T14:08:26.993Z</time></trkpt><trkpt lat="43.79437849673187" lon="7.666070153207302"><ele>144.0</ele><time>2026-04-02T14:08:27.993Z</time></trkpt><trkpt lat="43.79453988792774" lon="7.666046341009055"><ele>144.0</ele><time>2026-04-02T14:08:28.993Z</time></trkpt><trkpt lat="43.794711320291796" lon="7.666041279746647"><ele>144.0</ele><time>2026-04-02T14:08:29.993Z</time></trkpt><trkpt lat="43.79487918491266" lon="7.666068812962776"><ele>144.0</ele><time>2026-04-02T14:08:30.993Z</time></trkpt><trkpt lat="43.795042830205496" lon="7.666123679345817"><ele>147.66666666666666</ele><time>2026-04-02T14:08:31.993Z</time></trkpt><trkpt lat="43.79520247652173" lon="7.6661737476205625"><ele>151.33333333333331</ele><time>2026-04-02T14:08:32.993Z</time></trkpt><trkpt lat="43.795356104431306" lon="7.666195526489691"><ele>155.0</ele><time>2026-04-02T14:08:33.993Z</time></trkpt><trkpt lat="43.79551213693692" lon="7.666172984028237"><ele>155.0</ele><time>2026-04-02T14:08:34.993Z</time></trkpt><trkpt lat="43.79567671783905" lon="7.666153211881921"><ele>155.0</ele><time>2026-04-02T14:08:35.993Z</time></trkpt><trkpt lat="43.79582398115505" lon="7.66619886752404"><ele>155.0</ele><time>2026-04-02T14:08:36.993Z</time></trkpt><trkpt lat="43.79595415671963" lon="7.666305439220587"><ele>151.33333333333331</ele><time>2026-04-02T14:08:37.993Z</time></trkpt><trkpt lat="43.79606289583082" lon="7.666463002386371"><ele>147.66666666666666</ele><time>2026-04-02T14:08:38.993Z</time></trkpt><trkpt lat="43.79616506208544" lon="7.666636764616283"><ele>144.0</ele><time>2026-04-02T14:08:39.993Z</time></trkpt><trkpt lat="43.79626893801386" lon="7.666810303456502"><ele>146.5</ele><time>2026-04-02T14:08:40.993Z</time></trkpt><trkpt lat="43.79635365940144" lon="7.666982856380048"><ele>149.0</ele><time>2026-04-02T14:08:41.993Z</time></trkpt><trkpt lat="43.79640434621099" lon="7.667159151445937"><ele>151.5</ele><time>2026-04-02T14:08:42.993Z</time></trkpt><trkpt lat="43.79642245867813" lon="7.667347011372211"><ele>154.0</ele><time>2026-04-02T14:08:43.993Z</time></trkpt><trkpt lat="43.79646674371496" lon="7.667517937042987"><ele>154.0</ele><time>2026-04-02T14:08:44.993Z</time></trkpt><trkpt lat="43.796472178064896" lon="7.667702807676333"><ele>154.0</ele><time>2026-04-02T14:08:45.993Z</time></trkpt><trkpt lat="43.79647412088403" lon="7.667888844530791"><ele>154.0</ele><time>2026-04-02T14:08:46.993Z</time></trkpt><trkpt lat="43.79650820760255" lon="7.668078030374711"><ele>154.0</ele><time>2026-04-02T14:08:47.993Z</time></trkpt><trkpt lat="43.79656652224085" lon="7.668246921464666"><ele>154.5</ele><time>2026-04-02T14:08:48.993Z</time></trkpt><trkpt lat="43.7966524294969" lon="7.6683820613483995"><ele>155.0</ele><time>2026-04-02T14:08:49.993Z</time></trkpt><trkpt lat="43.79677051686565" lon="7.668478437445886"><ele>155.5</ele><time>2026-04-02T14:08:50.993Z</time></trkpt><trkpt lat="43.79689546873651" lon="7.668559095475772"><ele>156.0</ele><time>2026-04-02T14:08:51.993Z</time></trkpt><trkpt lat="43.797030455590054" lon="7.668623702365379"><ele>156.0</ele><time>2026-04-02T14:08:52.993Z</time></trkpt><trkpt lat="43.79717841881932" lon="7.668673954571788"><ele>156.0</ele><time>2026-04-02T14:08:53.993Z</time></trkpt><trkpt lat="43.79732946597993" lon="7.668702011606221"><ele>156.0</ele><time>2026-04-02T14:08:54.992Z</time></trkpt><trkpt lat="43.797480730678856" lon="7.6686900279276955"><ele>156.0</ele><time>2026-04-02T14:08:55.992Z</time></trkpt><trkpt lat="43.797637705109295" lon="7.668645063738287"><ele>156.0</ele><time>2026-04-02T14:08:56.992Z</time></trkpt><trkpt lat="43.797788307359546" lon="7.668570604192886"><ele>156.0</ele><time>2026-04-02T14:08:57.992Z</time></trkpt><trkpt lat="43.79793095827272" lon="7.668498075687525"><ele>158.0</ele><time>2026-04-02T14:08:58.992Z</time></trkpt><trkpt lat="43.798086133971296" lon="7.668451582270459"><ele>160.0</ele><time>2026-04-02T14:08:59.992Z</time></trkpt><trkpt lat="43.79824922270607" lon="7.668443270205244"><ele>162.0</ele><time>2026-04-02T14:09:00.992Z</time></trkpt><trkpt lat="43.79842032015882" lon="7.668463193898953"><ele>161.0</ele><time>2026-04-02T14:09:01.992Z</time></trkpt><trkpt lat="43.798587904604034" lon="7.668517903263368"><ele>160.0</ele><time>2026-04-02T14:09:02.992Z</time></trkpt><trkpt lat="43.79876226626429" lon="7.668589942862398"><ele>159.0</ele><time>2026-04-02T14:09:03.992Z</time></trkpt><trkpt lat="43.798942319502416" lon="7.6686833584688765"><ele>159.0</ele><time>2026-04-02T14:09:04.992Z</time></trkpt><trkpt lat="43.79912405242115" lon="7.66877314285761"><ele>159.0</ele><time>2026-04-02T14:09:05.992Z</time></trkpt><trkpt lat="43.799303334532496" lon="7.668864400969682"><ele>159.0</ele><time>2026-04-02T14:09:06.992Z</time></trkpt><trkpt lat="43.79948355598056" lon="7.668952137662762"><ele>162.0</ele><time>2026-04-02T14:09:07.992Z</time></trkpt><trkpt lat="43.799665067686455" lon="7.66903328557383"><ele>165.0</ele><time>2026-04-02T14:09:08.992Z</time></trkpt><trkpt lat="43.79984517957852" lon="7.669116817420189"><ele>168.0</ele><time>2026-04-02T14:09:09.992Z</time></trkpt><trkpt lat="43.800013179500745" lon="7.669190145336486"><ele>168.0</ele><time>2026-04-02T14:09:10.992Z</time></trkpt><trkpt lat="43.800172648939686" lon="7.669267526588972"><ele>168.0</ele><time>2026-04-02T14:09:11.992Z</time></trkpt><trkpt lat="43.80033358984898" lon="7.66935615688102"><ele>168.0</ele><time>2026-04-02T14:09:12.992Z</time></trkpt><trkpt lat="43.80048758093296" lon="7.669442554350478"><ele>170.0</ele><time>2026-04-02T14:09:13.992Z</time></trkpt><trkpt lat="43.80064638938123" lon="7.6695328580437945"><ele>172.0</ele><time>2026-04-02T14:09:14.992Z</time></trkpt><trkpt lat="43.800803407126274" lon="7.669591283218641"><ele>174.0</ele><time>2026-04-02T14:09:15.992Z</time></trkpt><trkpt lat="43.80096073037209" lon="7.669633998214246"><ele>176.0</ele><time>2026-04-02T14:09:16.992Z</time></trkpt><trkpt lat="43.8011060254436" lon="7.6696856042558474"><ele>178.0</ele><time>2026-04-02T14:09:17.992Z</time></trkpt><trkpt lat="43.80124378462988" lon="7.669735041456113"><ele>180.0</ele><time>2026-04-02T14:09:18.992Z</time></trkpt><trkpt lat="43.80135299572394" lon="7.6698574134134985"><ele>182.0</ele><time>2026-04-02T14:09:19.992Z</time></trkpt><trkpt lat="43.801454864560235" lon="7.669969167561951"><ele>182.0</ele><time>2026-04-02T14:09:20.992Z</time></trkpt><trkpt lat="43.80156476423343" lon="7.670068102390883"><ele>182.0</ele><time>2026-04-02T14:09:21.992Z</time></trkpt><trkpt lat="43.80168081441844" lon="7.670145266769585"><ele>182.0</ele><time>2026-04-02T14:09:22.992Z</time></trkpt><trkpt lat="43.80180597172276" lon="7.670184729671945"><ele>182.0</ele><time>2026-04-02T14:09:23.992Z</time></trkpt><trkpt lat="43.80194043505345" lon="7.670185768374613"><ele>182.25</ele><time>2026-04-02T14:09:24.992Z</time></trkpt><trkpt lat="43.8020692646483" lon="7.6702087845033695"><ele>182.5</ele><time>2026-04-02T14:09:25.992Z</time></trkpt><trkpt lat="43.80215463723212" lon="7.670312883956125"><ele>182.75</ele><time>2026-04-02T14:09:26.992Z</time></trkpt><trkpt lat="43.802229027148776" lon="7.670469237562304"><ele>183.0</ele><time>2026-04-02T14:09:27.992Z</time></trkpt><trkpt lat="43.80231342345126" lon="7.670621177519323"><ele>183.0</ele><time>2026-04-02T14:09:28.992Z</time></trkpt><trkpt lat="43.802408314550064" lon="7.670750992182788"><ele>183.0</ele><time>2026-04-02T14:09:29.992Z</time></trkpt><trkpt lat="43.80252231252826" lon="7.670847959579608"><ele>183.0</ele><time>2026-04-02T14:09:30.992Z</time></trkpt><trkpt lat="43.802642899569044" lon="7.670889126730192"><ele>183.0</ele><time>2026-04-02T14:09:31.992Z</time></trkpt><trkpt lat="43.80278849502003" lon="7.670891833151342"><ele>184.5</ele><time>2026-04-02T14:09:32.992Z</time></trkpt><trkpt lat="43.80293603551233" lon="7.6708987062713625"><ele>186.0</ele><time>2026-04-02T14:09:33.992Z</time></trkpt><trkpt lat="43.803079319173534" lon="7.670917363220779"><ele>187.5</ele><time>2026-04-02T14:09:34.992Z</time></trkpt><trkpt lat="43.80322415683488" lon="7.670952918220844"><ele>189.0</ele><time>2026-04-02T14:09:35.992Z</time></trkpt><trkpt lat="43.80352570214514" lon="7.6710811889028125"><ele>189.33333333333334</ele><time>2026-04-02T14:09:37.992Z</time></trkpt><trkpt lat="43.80368220837177" lon="7.671149598102116"><ele>189.66666666666669</ele><time>2026-04-02T14:09:38.992Z</time></trkpt><trkpt lat="43.803833385662614" lon="7.671211894054696"><ele>190.0</ele><time>2026-04-02T14:09:39.992Z</time></trkpt><trkpt lat="43.80399778765931" lon="7.67127334620461"><ele>190.0</ele><time>2026-04-02T14:09:40.992Z</time></trkpt><trkpt lat="43.804150320410585" lon="7.671343331823514"><ele>190.0</ele><time>2026-04-02T14:09:41.992Z</time></trkpt><trkpt lat="43.80429954764901" lon="7.671409082233054"><ele>190.0</ele><time>2026-04-02T14:09:42.992Z</time></trkpt><trkpt lat="43.80444046881146" lon="7.671493903063695"><ele>191.5</ele><time>2026-04-02T14:09:43.992Z</time></trkpt><trkpt lat="43.80454605616978" lon="7.671635025625857"><ele>193.0</ele><time>2026-04-02T14:09:44.992Z</time></trkpt><trkpt lat="43.80465617323018" lon="7.671767289666734"><ele>194.5</ele><time>2026-04-02T14:09:45.992Z</time></trkpt><trkpt lat="43.804762376784865" lon="7.671898474493722"><ele>196.0</ele><time>2026-04-02T14:09:46.991Z</time></trkpt><trkpt lat="43.80485956363096" lon="7.672018521718498"><ele>196.0</ele><time>2026-04-02T14:09:47.991Z</time></trkpt><trkpt lat="43.804961713230576" lon="7.672124437789517"><ele>196.0</ele><time>2026-04-02T14:09:48.991Z</time></trkpt><trkpt lat="43.80504457608813" lon="7.67224101838145"><ele>196.0</ele><time>2026-04-02T14:09:49.991Z</time></trkpt><trkpt lat="43.80513718990703" lon="7.672355605003991"><ele>196.0</ele><time>2026-04-02T14:09:50.991Z</time></trkpt><trkpt lat="43.80522826379122" lon="7.6724678138571045"><ele>197.25</ele><time>2026-04-02T14:09:51.991Z</time></trkpt><trkpt lat="43.80531264668522" lon="7.672576622397264"><ele>198.5</ele><time>2026-04-02T14:09:52.991Z</time></trkpt><trkpt lat="43.8053893501889" lon="7.672669711648927"><ele>199.75</ele><time>2026-04-02T14:09:53.991Z</time></trkpt><trkpt lat="43.805461920486046" lon="7.672760201187366"><ele>201.0</ele><time>2026-04-02T14:09:54.991Z</time></trkpt><trkpt lat="43.80558605569615" lon="7.672887493842868"><ele>201.0</ele><time>2026-04-02T14:09:56.991Z</time></trkpt><trkpt lat="43.805667421224776" lon="7.672924471902675"><ele>201.0</ele><time>2026-04-02T14:09:58.991Z</time></trkpt><trkpt lat="43.805771240646145" lon="7.672981315053409"><ele>201.0</ele><time>2026-04-02T14:10:00.991Z</time></trkpt><trkpt lat="43.805853363933025" lon="7.673096041781224"><ele>201.0</ele><time>2026-04-02T14:10:02.991Z</time></trkpt><trkpt lat="43.805889642128655" lon="7.673171884622187"><ele>201.0</ele><time>2026-04-02T14:10:03.991Z</time></trkpt><trkpt lat="43.80593785981496" lon="7.6732529956132565"><ele>201.0</ele><time>2026-04-02T14:10:04.991Z</time></trkpt><trkpt lat="43.805985078012974" lon="7.6733271724554335"><ele>201.0</ele><time>2026-04-02T14:10:05.991Z</time></trkpt><trkpt lat="43.80603389905809" lon="7.673420228364161"><ele>201.0</ele><time>2026-04-02T14:10:06.991Z</time></trkpt><trkpt lat="43.80607544294782" lon="7.673501245993423"><ele>201.0</ele><time>2026-04-02T14:10:07.991Z</time></trkpt><trkpt lat="43.80611950125369" lon="7.673577175318977"><ele>201.0</ele><time>2026-04-02T14:10:08.991Z</time></trkpt><trkpt lat="43.80616799861974" lon="7.673645124843138"><ele>201.0</ele><time>2026-04-02T14:10:09.991Z</time></trkpt><trkpt lat="43.80627339344074" lon="7.673760077500793"><ele>201.5</ele><time>2026-04-02T14:10:11.991Z</time></trkpt><trkpt lat="43.80633696846741" lon="7.673789410296203"><ele>202.0</ele><time>2026-04-02T14:10:12.991Z</time></trkpt><trkpt lat="43.80642210101218" lon="7.673823617009632"><ele>202.5</ele><time>2026-04-02T14:10:13.991Z</time></trkpt><trkpt lat="43.80649214507804" lon="7.673875520723833"><ele>203.0</ele><time>2026-04-02T14:10:14.991Z</time></trkpt><trkpt lat="43.80654957526565" lon="7.673942217598284"><ele>203.5</ele><time>2026-04-02T14:10:15.991Z</time></trkpt><trkpt lat="43.80661156271757" lon="7.674003922442563"><ele>204.0</ele><time>2026-04-02T14:10:16.991Z</time></trkpt><trkpt lat="43.80667044774256" lon="7.67407319621797"><ele>204.0</ele><time>2026-04-02T14:10:17.991Z</time></trkpt><trkpt lat="43.80672551348757" lon="7.674123713672021"><ele>204.0</ele><time>2026-04-02T14:10:18.991Z</time></trkpt><trkpt lat="43.806764201092186" lon="7.674199426123435"><ele>204.0</ele><time>2026-04-02T14:10:19.991Z</time></trkpt><trkpt lat="43.8068284234749" lon="7.674313046281944"><ele>204.0</ele><time>2026-04-02T14:10:21.991Z</time></trkpt><trkpt lat="43.80679506210675" lon="7.674430088130823"><ele>204.0</ele><time>2026-04-02T14:10:23.991Z</time></trkpt><trkpt lat="43.806777924335066" lon="7.674579522405742"><ele>204.0</ele><time>2026-04-02T14:10:25.991Z</time></trkpt><trkpt lat="43.80671743145989" lon="7.674722111232927"><ele>204.0</ele><time>2026-04-02T14:10:27.991Z</time></trkpt><trkpt lat="43.806764683272085" lon="7.674930838071574"><ele>204.0</ele><time>2026-04-02T14:10:28.991Z</time></trkpt><trkpt lat="43.806868106982066" lon="7.675025124169817"><ele>204.0</ele><time>2026-04-02T14:10:29.991Z</time></trkpt><trkpt lat="43.80697816650995" lon="7.675079814395924"><ele>204.0</ele><time>2026-04-02T14:10:30.991Z</time></trkpt><trkpt lat="43.8070670456653" lon="7.675103912003509"><ele>204.0</ele><time>2026-04-02T14:10:31.991Z</time></trkpt><trkpt lat="43.807171140546174" lon="7.67513748699424"><ele>204.0</ele><time>2026-04-02T14:10:33.991Z</time></trkpt><trkpt lat="43.807236791757674" lon="7.67517262850567"><ele>204.0</ele><time>2026-04-02T14:10:41.99Z</time></trkpt><trkpt lat="43.80728007773633" lon="7.675269149034648"><ele>204.0</ele><time>2026-04-02T14:10:43.99Z</time></trkpt><trkpt lat="43.80735316049882" lon="7.675417712622193"><ele>204.0</ele><time>2026-04-02T14:10:45.99Z</time></trkpt><trkpt lat="43.8073901580407" lon="7.675488452294135"><ele>205.2</ele><time>2026-04-02T14:10:46.99Z</time></trkpt><trkpt lat="43.80748377456824" lon="7.675630047773516"><ele>206.39999999999998</ele><time>2026-04-02T14:10:48.99Z</time></trkpt><trkpt lat="43.80755262360638" lon="7.675669473784043"><ele>207.6</ele><time>2026-04-02T14:10:49.99Z</time></trkpt><trkpt lat="43.80763862899537" lon="7.675765347083524"><ele>208.8</ele><time>2026-04-02T14:10:51.99Z</time></trkpt><trkpt lat="43.80769392568855" lon="7.675832307933579"><ele>210.0</ele><time>2026-04-02T14:10:52.99Z</time></trkpt><trkpt lat="43.80774434890138" lon="7.675895673747566"><ele>210.0</ele><time>2026-04-02T14:10:53.99Z</time></trkpt><trkpt lat="43.80780130188517" lon="7.67594859406855"><ele>210.0</ele><time>2026-04-02T14:10:54.99Z</time></trkpt><trkpt lat="43.807844834095945" lon="7.6760511117374675"><ele>210.0</ele><time>2026-04-02T14:10:55.99Z</time></trkpt><trkpt lat="43.807900353259406" lon="7.676140531224492"><ele>210.0</ele><time>2026-04-02T14:10:56.99Z</time></trkpt><trkpt lat="43.80796309680129" lon="7.676213900241776"><ele>210.0</ele><time>2026-04-02T14:10:57.99Z</time></trkpt><trkpt lat="43.80804475713559" lon="7.676289002336642"><ele>210.0</ele><time>2026-04-02T14:10:58.99Z</time></trkpt><trkpt lat="43.80810372593171" lon="7.676363121712201"><ele>206.66666666666666</ele><time>2026-04-02T14:10:59.99Z</time></trkpt><trkpt lat="43.80816833699657" lon="7.676426516956619"><ele>203.33333333333334</ele><time>2026-04-02T14:11:00.99Z</time></trkpt><trkpt lat="43.80821600228912" lon="7.676489633743958"><ele>200.0</ele><time>2026-04-02T14:11:01.99Z</time></trkpt><trkpt lat="43.808233802127106" lon="7.676582542044937"><ele>196.66666666666669</ele><time>2026-04-02T14:11:02.99Z</time></trkpt><trkpt lat="43.80828153913666" lon="7.6766542933318895"><ele>193.33333333333334</ele><time>2026-04-02T14:11:03.99Z</time></trkpt><trkpt lat="43.80834764215831" lon="7.676777462899126"><ele>190.0</ele><time>2026-04-02T14:11:05.99Z</time></trkpt><trkpt lat="43.808404050599734" lon="7.676828854629389"><ele>190.0</ele><time>2026-04-02T14:11:06.99Z</time></trkpt><trkpt lat="43.80846596921339" lon="7.676869745583783"><ele>190.0</ele><time>2026-04-02T14:11:07.99Z</time></trkpt><trkpt lat="43.80854686648249" lon="7.676929701576635"><ele>190.0</ele><time>2026-04-02T14:11:08.99Z</time></trkpt><trkpt lat="43.80859953903906" lon="7.677006973800308"><ele>190.0</ele><time>2026-04-02T14:11:09.99Z</time></trkpt><trkpt lat="43.808702482001905" lon="7.677047819408181"><ele>190.0</ele><time>2026-04-02T14:11:11.99Z</time></trkpt><trkpt lat="43.808813270590846" lon="7.67707950659779"><ele>190.71428571428572</ele><time>2026-04-02T14:11:13.99Z</time></trkpt><trkpt lat="43.808874365630274" lon="7.677102334716587"><ele>191.42857142857144</ele><time>2026-04-02T14:11:14.99Z</time></trkpt><trkpt lat="43.80893443656125" lon="7.677142007570509"><ele>192.14285714285714</ele><time>2026-04-02T14:11:15.99Z</time></trkpt><trkpt lat="43.8089900613385" lon="7.677199442707481"><ele>192.85714285714286</ele><time>2026-04-02T14:11:16.99Z</time></trkpt><trkpt lat="43.8090257008322" lon="7.677277999278342"><ele>193.57142857142856</ele><time>2026-04-02T14:11:17.99Z</time></trkpt><trkpt lat="43.809075013365366" lon="7.677332579949486"><ele>194.28571428571428</ele><time>2026-04-02T14:11:18.99Z</time></trkpt><trkpt lat="43.80913604067341" lon="7.677464432075103"><ele>195.0</ele><time>2026-04-02T14:11:20.99Z</time></trkpt><trkpt lat="43.80922235827765" lon="7.67758233301964"><ele>195.0</ele><time>2026-04-02T14:11:22.99Z</time></trkpt><trkpt lat="43.80929518788357" lon="7.67764705487818"><ele>195.0</ele><time>2026-04-02T14:11:23.99Z</time></trkpt><trkpt lat="43.80934773266689" lon="7.677697411112208"><ele>195.0</ele><time>2026-04-02T14:11:24.99Z</time></trkpt><trkpt lat="43.80940187045147" lon="7.677744569182909"><ele>195.0</ele><time>2026-04-02T14:11:25.99Z</time></trkpt><trkpt lat="43.80947445327591" lon="7.677866749500892"><ele>195.0</ele><time>2026-04-02T14:11:27.99Z</time></trkpt><trkpt lat="43.809575178929386" lon="7.677975100760622"><ele>195.5</ele><time>2026-04-02T14:11:29.99Z</time></trkpt><trkpt lat="43.80962240110868" lon="7.678082521172257"><ele>196.0</ele><time>2026-04-02T14:11:31.989Z</time></trkpt><trkpt lat="43.80955366951706" lon="7.6781826408193155"><ele>196.5</ele><time>2026-04-02T14:11:34.989Z</time></trkpt><trkpt lat="43.80948598646564" lon="7.678209093745633"><ele>197.0</ele><time>2026-04-02T14:11:35.989Z</time></trkpt><trkpt lat="43.809406496448766" lon="7.678221805418451"><ele>197.5</ele><time>2026-04-02T14:11:36.989Z</time></trkpt><trkpt lat="43.80932559337462" lon="7.678188082207496"><ele>198.0</ele><time>2026-04-02T14:11:37.989Z</time></trkpt><trkpt lat="43.80925351474156" lon="7.678176460620037"><ele>198.0</ele><time>2026-04-02T14:11:38.989Z</time></trkpt><trkpt lat="43.80919058191475" lon="7.678166313645752"><ele>198.0</ele><time>2026-04-02T14:11:39.989Z</time></trkpt><trkpt lat="43.80906697814479" lon="7.6781646997768735"><ele>198.0</ele><time>2026-04-02T14:11:41.989Z</time></trkpt><trkpt lat="43.808992588167456" lon="7.678139761546462"><ele>198.0</ele><time>2026-04-02T14:11:42.989Z</time></trkpt><trkpt lat="43.808917414166764" lon="7.678125351596314"><ele>198.0</ele><time>2026-04-02T14:11:43.989Z</time></trkpt><trkpt lat="43.80884459607948" lon="7.678103181194443"><ele>198.0</ele><time>2026-04-02T14:11:44.989Z</time></trkpt><trkpt lat="43.80877001773456" lon="7.678072867801921"><ele>198.0</ele><time>2026-04-02T14:11:45.989Z</time></trkpt><trkpt lat="43.80869842987207" lon="7.6780242553331925"><ele>198.0</ele><time>2026-04-02T14:11:46.989Z</time></trkpt><trkpt lat="43.80863296136381" lon="7.677994315823901"><ele>198.0</ele><time>2026-04-02T14:11:47.989Z</time></trkpt><trkpt lat="43.80854585164979" lon="7.6779712142491645"><ele>198.0</ele><time>2026-04-02T14:11:49.989Z</time></trkpt><trkpt lat="43.80845415954804" lon="7.678009197007889"><ele>198.0</ele><time>2026-04-02T14:12:12.989Z</time></trkpt><trkpt lat="43.808380541911966" lon="7.678016252045184"><ele>198.0</ele><time>2026-04-02T14:12:14.989Z</time></trkpt><trkpt lat="43.808293819211514" lon="7.678020035898594"><ele>199.83333333333334</ele><time>2026-04-02T14:12:16.989Z</time></trkpt><trkpt lat="43.808221016270146" lon="7.678053705261946"><ele>201.66666666666669</ele><time>2026-04-02T14:12:17.989Z</time></trkpt><trkpt lat="43.808151511776245" lon="7.678077366777165"><ele>203.5</ele><time>2026-04-02T14:12:19.989Z</time></trkpt><trkpt lat="43.80802774461356" lon="7.678017102287588"><ele>205.33333333333334</ele><time>2026-04-02T14:12:21.988Z</time></trkpt><trkpt lat="43.80796818116094" lon="7.677979964514664"><ele>207.16666666666669</ele><time>2026-04-02T14:12:22.988Z</time></trkpt><trkpt lat="43.807894684941616" lon="7.677931016183144"><ele>209.0</ele><time>2026-04-02T14:12:23.988Z</time></trkpt><trkpt lat="43.80777055503916" lon="7.677848345990615"><ele>209.0</ele><time>2026-04-02T14:12:25.988Z</time></trkpt><trkpt lat="43.807678121187294" lon="7.677797592478125"><ele>209.0</ele><time>2026-04-02T14:12:27.988Z</time></trkpt><trkpt lat="43.807612969533764" lon="7.677784674079014"><ele>209.0</ele><time>2026-04-02T14:12:28.988Z</time></trkpt><trkpt lat="43.80747806276769" lon="7.677761225293582"><ele>209.0</ele><time>2026-04-02T14:12:29.988Z</time></trkpt><trkpt lat="43.80739800800292" lon="7.677709543837993"><ele>209.0</ele><time>2026-04-02T14:12:30.988Z</time></trkpt><trkpt lat="43.807330676113374" lon="7.677690932094265"><ele>206.16666666666669</ele><time>2026-04-02T14:12:31.988Z</time></trkpt><trkpt lat="43.80725583206359" lon="7.677665888736705"><ele>203.33333333333334</ele><time>2026-04-02T14:12:32.988Z</time></trkpt><trkpt lat="43.807138725168926" lon="7.677597887876917"><ele>200.5</ele><time>2026-04-02T14:12:34.988Z</time></trkpt><trkpt lat="43.807068794520184" lon="7.677590823266179"><ele>197.66666666666669</ele><time>2026-04-02T14:12:35.988Z</time></trkpt><trkpt lat="43.80699299552674" lon="7.677611172252177"><ele>194.83333333333334</ele><time>2026-04-02T14:12:36.988Z</time></trkpt><trkpt lat="43.80691877176409" lon="7.6776399058606515"><ele>192.0</ele><time>2026-04-02T14:12:37.988Z</time></trkpt><trkpt lat="43.80686335165061" lon="7.677698133020897"><ele>196.66666666666666</ele><time>2026-04-02T14:12:38.988Z</time></trkpt><trkpt lat="43.8067759202763" lon="7.677824500243205"><ele>201.33333333333331</ele><time>2026-04-02T14:12:40.988Z</time></trkpt><trkpt lat="43.806735823966136" lon="7.677899888988253"><ele>206.0</ele><time>2026-04-02T14:12:41.988Z</time></trkpt><trkpt lat="43.80668864374769" lon="7.677973165308076"><ele>210.66666666666666</ele><time>2026-04-02T14:12:42.988Z</time></trkpt><trkpt lat="43.806639159830866" lon="7.678055332523398"><ele>215.33333333333331</ele><time>2026-04-02T14:12:43.988Z</time></trkpt><trkpt lat="43.806593608338176" lon="7.678121889700752"><ele>220.0</ele><time>2026-04-02T14:12:44.988Z</time></trkpt><trkpt lat="43.80653149261948" lon="7.678185895540945"><ele>220.0</ele><time>2026-04-02T14:12:45.988Z</time></trkpt><trkpt lat="43.80648061046883" lon="7.678318300868821"><ele>220.0</ele><time>2026-04-02T14:12:47.988Z</time></trkpt><trkpt lat="43.80640385981714" lon="7.678375517957194"><ele>220.0</ele><time>2026-04-02T14:12:49.988Z</time></trkpt><trkpt lat="43.80628713420348" lon="7.678316897975228"><ele>220.0</ele><time>2026-04-02T14:12:50.988Z</time></trkpt><trkpt lat="43.80622058396676" lon="7.678231546242122"><ele>220.0</ele><time>2026-04-02T14:12:51.988Z</time></trkpt><trkpt lat="43.806181974115056" lon="7.678116007468451"><ele>219.99999999999997</ele><time>2026-04-02T14:12:52.988Z</time></trkpt><trkpt lat="43.80617325176266" lon="7.678026201180814"><ele>220.0</ele><time>2026-04-02T14:12:53.988Z</time></trkpt><trkpt lat="43.80620014981847" lon="7.677920734431296"><ele>220.0</ele><time>2026-04-02T14:12:54.988Z</time></trkpt><trkpt lat="43.806235004102994" lon="7.677793507037403"><ele>220.0</ele><time>2026-04-02T14:12:56.988Z</time></trkpt><trkpt lat="43.80627406955077" lon="7.677696103097435"><ele>219.99999999999997</ele><time>2026-04-02T14:12:58.988Z</time></trkpt><trkpt lat="43.80628481024763" lon="7.677605083785984"><ele>220.0</ele><time>2026-04-02T14:12:59.988Z</time></trkpt><trkpt lat="43.80629957762444" lon="7.677443948755656"><ele>214.6</ele><time>2026-04-02T14:13:01.988Z</time></trkpt><trkpt lat="43.80632150323885" lon="7.677353297952208"><ele>209.2</ele><time>2026-04-02T14:13:02.988Z</time></trkpt><trkpt lat="43.80634763137991" lon="7.677177409760072"><ele>203.8</ele><time>2026-04-02T14:13:04.988Z</time></trkpt><trkpt lat="43.80630753044271" lon="7.677046062034691"><ele>198.4</ele><time>2026-04-02T14:13:05.988Z</time></trkpt><trkpt lat="43.80624512599152" lon="7.676946155900445"><ele>193.0</ele><time>2026-04-02T14:13:06.988Z</time></trkpt><trkpt lat="43.806177240394334" lon="7.676855890457802"><ele>192.8</ele><time>2026-04-02T14:13:07.988Z</time></trkpt><trkpt lat="43.80609798434104" lon="7.676789744826658"><ele>192.60000000000002</ele><time>2026-04-02T14:13:08.988Z</time></trkpt><trkpt lat="43.806018807757525" lon="7.676741728172803"><ele>192.39999999999998</ele><time>2026-04-02T14:13:10.988Z</time></trkpt><trkpt lat="43.8058978653523" lon="7.676668383378306"><ele>192.2</ele><time>2026-04-02T14:13:12.988Z</time></trkpt><trkpt lat="43.80580284329027" lon="7.676572267932451"><ele>192.0</ele><time>2026-04-02T14:13:14.987Z</time></trkpt><trkpt lat="43.80580365492975" lon="7.676484350325926"><ele>192.0</ele><time>2026-04-02T14:13:17.987Z</time></trkpt><trkpt lat="43.80517324923641" lon="7.6768457860245904"><ele>194.33333333333334</ele><time>2026-04-02T14:13:20.987Z</time></trkpt><trkpt lat="43.80509520714225" lon="7.676826080138884"><ele>196.66666666666669</ele><time>2026-04-02T14:13:21.987Z</time></trkpt><trkpt lat="43.80502205512637" lon="7.676810333874739"><ele>199.0</ele><time>2026-04-02T14:13:22.987Z</time></trkpt><trkpt lat="43.8049357393653" lon="7.676825280683365"><ele>201.33333333333334</ele><time>2026-04-02T14:13:24.987Z</time></trkpt><trkpt lat="43.80487289625756" lon="7.676862340601788"><ele>203.66666666666669</ele><time>2026-04-02T14:13:25.987Z</time></trkpt><trkpt lat="43.80480693644159" lon="7.676887929131824"><ele>206.0</ele><time>2026-04-02T14:13:26.987Z</time></trkpt><trkpt lat="43.80473131561037" lon="7.67691607360206"><ele>212.0</ele><time>2026-04-02T14:13:27.987Z</time></trkpt><trkpt lat="43.804626673250574" lon="7.676955401367187"><ele>218.0</ele><time>2026-04-02T14:13:29.987Z</time></trkpt><trkpt lat="43.804516261811415" lon="7.6770109392825985"><ele>224.00000000000003</ele><time>2026-04-02T14:13:31.987Z</time></trkpt><trkpt lat="43.80445307281156" lon="7.67703734898594"><ele>230.0</ele><time>2026-04-02T14:13:32.987Z</time></trkpt><trkpt lat="43.804358609908604" lon="7.677128595654761"><ele>236.0</ele><time>2026-04-02T14:13:34.987Z</time></trkpt><trkpt lat="43.80426497917691" lon="7.67714221536691"><ele>236.00000000000003</ele><time>2026-04-02T14:13:36.987Z</time></trkpt><trkpt lat="43.804213052775275" lon="7.677041126331493"><ele>236.0</ele><time>2026-04-02T14:13:38.987Z</time></trkpt><trkpt lat="43.80416837611317" lon="7.676967113458838"><ele>236.0</ele><time>2026-04-02T14:13:39.987Z</time></trkpt><trkpt lat="43.80412715245382" lon="7.676862688904966"><ele>236.0</ele><time>2026-04-02T14:13:40.987Z</time></trkpt><trkpt lat="43.804083077086034" lon="7.676775976430264"><ele>236.00000000000003</ele><time>2026-04-02T14:13:41.987Z</time></trkpt><trkpt lat="43.80405188037686" lon="7.676675880494067"><ele>236.0</ele><time>2026-04-02T14:13:42.987Z</time></trkpt><trkpt lat="43.80399807268929" lon="7.676519809429704"><ele>232.33333333333334</ele><time>2026-04-02T14:13:44.987Z</time></trkpt><trkpt lat="43.80396286618222" lon="7.676434726046319"><ele>228.66666666666669</ele><time>2026-04-02T14:13:45.987Z</time></trkpt><trkpt lat="43.80392492729137" lon="7.676360309491718"><ele>225.0</ele><time>2026-04-02T14:13:46.987Z</time></trkpt><trkpt lat="43.80381122207119" lon="7.676274035313448"><ele>221.33333333333331</ele><time>2026-04-02T14:13:48.987Z</time></trkpt><trkpt lat="43.80374318708303" lon="7.676244754349481"><ele>217.66666666666666</ele><time>2026-04-02T14:13:49.987Z</time></trkpt><trkpt lat="43.80367890597686" lon="7.676242248265698"><ele>214.0</ele><time>2026-04-02T14:13:50.987Z</time></trkpt><trkpt lat="43.80361578857611" lon="7.676242360096743"><ele>213.99999999999997</ele><time>2026-04-02T14:14:28.986Z</time></trkpt><trkpt lat="43.80368960977884" lon="7.6763124941392"><ele>214.0</ele><time>2026-04-02T14:14:33.986Z</time></trkpt><trkpt lat="43.803754205677826" lon="7.676382287637061"><ele>214.0</ele><time>2026-04-02T14:14:35.986Z</time></trkpt><trkpt lat="43.80380024062368" lon="7.676467142229132"><ele>214.0</ele><time>2026-04-02T14:14:36.986Z</time></trkpt><trkpt lat="43.80382793323289" lon="7.676601021255112"><ele>213.99999999999997</ele><time>2026-04-02T14:14:38.986Z</time></trkpt><trkpt lat="43.80382917972747" lon="7.6767393653830895"><ele>214.0</ele><time>2026-04-02T14:14:40.986Z</time></trkpt><trkpt lat="43.80382059747657" lon="7.676878929155494"><ele>218.39999999999998</ele><time>2026-04-02T14:14:42.986Z</time></trkpt><trkpt lat="43.8038075464917" lon="7.677017614484222"><ele>222.79999999999998</ele><time>2026-04-02T14:14:44.986Z</time></trkpt><trkpt lat="43.803826681688484" lon="7.677119400598798"><ele>227.20000000000002</ele><time>2026-04-02T14:14:56.986Z</time></trkpt><trkpt lat="43.80385149666617" lon="7.677215850516502"><ele>231.60000000000002</ele><time>2026-04-02T14:14:58.985Z</time></trkpt><trkpt lat="43.80382964437274" lon="7.67733545501806"><ele>236.0</ele><time>2026-04-02T14:15:00.985Z</time></trkpt><trkpt lat="43.8038118736884" lon="7.677512642282776"><ele>236.00000000000003</ele><time>2026-04-02T14:15:02.985Z</time></trkpt><trkpt lat="43.80382768228458" lon="7.677601828880211"><ele>236.0</ele><time>2026-04-02T14:15:03.985Z</time></trkpt><trkpt lat="43.80386573354942" lon="7.677687105393771"><ele>236.0</ele><time>2026-04-02T14:15:04.985Z</time></trkpt><trkpt lat="43.80390422894943" lon="7.677797921601292"><ele>236.0</ele><time>2026-04-02T14:15:06.985Z</time></trkpt><trkpt lat="43.80394030087374" lon="7.677871856272613"><ele>236.00000000000003</ele><time>2026-04-02T14:15:09.985Z</time></trkpt><trkpt lat="43.803878534025195" lon="7.677793151836691"><ele>236.0</ele><time>2026-04-02T14:15:19.985Z</time></trkpt><trkpt lat="43.803848077964034" lon="7.6776890803318745"><ele>236.0</ele><time>2026-04-02T14:15:21.985Z</time></trkpt><trkpt lat="43.80385151075645" lon="7.677566010913224"><ele>236.00000000000003</ele><time>2026-04-02T14:15:23.985Z</time></trkpt><trkpt lat="43.80389444601462" lon="7.677411146121874"><ele>236.00000000000003</ele><time>2026-04-02T14:15:25.985Z</time></trkpt><trkpt lat="43.80390322682597" lon="7.677249560662974"><ele>236.0</ele><time>2026-04-02T14:15:27.985Z</time></trkpt><trkpt lat="43.80387649868731" lon="7.677161381994941"><ele>236.0</ele><time>2026-04-02T14:15:28.985Z</time></trkpt><trkpt lat="43.80388906417177" lon="7.677073816016764"><ele>231.60000000000002</ele><time>2026-04-02T14:15:29.985Z</time></trkpt><trkpt lat="43.803899072615266" lon="7.676893415464659"><ele>227.20000000000002</ele><time>2026-04-02T14:15:31.985Z</time></trkpt><trkpt lat="43.803896379679784" lon="7.676742017064116"><ele>222.79999999999998</ele><time>2026-04-02T14:15:33.985Z</time></trkpt><trkpt lat="43.80386760734284" lon="7.676606959642363"><ele>218.39999999999998</ele><time>2026-04-02T14:15:35.985Z</time></trkpt><trkpt lat="43.80380884170995" lon="7.676481649221972"><ele>214.0</ele><time>2026-04-02T14:15:37.985Z</time></trkpt><trkpt lat="43.80374331595314" lon="7.676384213044764"><ele>214.0</ele><time>2026-04-02T14:15:39.985Z</time></trkpt><trkpt lat="43.80362310599529" lon="7.676334445848499"><ele>213.99999999999997</ele><time>2026-04-02T14:15:41.985Z</time></trkpt><trkpt lat="43.80355961527284" lon="7.67632554451642"><ele>213.99999999999997</ele><time>2026-04-02T14:15:42.985Z</time></trkpt><trkpt lat="43.80344675377428" lon="7.676291453059916"><ele>214.0</ele><time>2026-04-02T14:15:44.985Z</time></trkpt><trkpt lat="43.80337868390143" lon="7.676272398223175"><ele>214.0</ele><time>2026-04-02T14:15:45.985Z</time></trkpt><trkpt lat="43.803302347853744" lon="7.676248029956106"><ele>217.33333333333331</ele><time>2026-04-02T14:15:46.985Z</time></trkpt><trkpt lat="43.803233729004916" lon="7.676240101554375"><ele>220.66666666666666</ele><time>2026-04-02T14:15:47.985Z</time></trkpt><trkpt lat="43.80316437223736" lon="7.6762474191364145"><ele>224.0</ele><time>2026-04-02T14:15:48.985Z</time></trkpt><trkpt lat="43.803080842281034" lon="7.676268046012527"><ele>227.33333333333331</ele><time>2026-04-02T14:15:50.984Z</time></trkpt><trkpt lat="43.80303012553727" lon="7.676341897288081"><ele>230.66666666666666</ele><time>2026-04-02T14:15:52.984Z</time></trkpt><trkpt lat="43.80297368437434" lon="7.676465030658288"><ele>234.0</ele><time>2026-04-02T14:15:54.984Z</time></trkpt><trkpt lat="43.802943043197914" lon="7.67654477100475"><ele>234.0</ele><time>2026-04-02T14:15:55.984Z</time></trkpt><trkpt lat="43.80284746957733" lon="7.676573176266699"><ele>234.0</ele><time>2026-04-02T14:15:57.984Z</time></trkpt><trkpt lat="43.80277782382931" lon="7.676539927642354"><ele>234.0</ele><time>2026-04-02T14:15:58.984Z</time></trkpt><trkpt lat="43.8027067804433" lon="7.676494882290633"><ele>234.0</ele><time>2026-04-02T14:15:59.984Z</time></trkpt><trkpt lat="43.802654075630095" lon="7.676429840078952"><ele>234.0</ele><time>2026-04-02T14:16:00.984Z</time></trkpt><trkpt lat="43.80255888849979" lon="7.676389753346582"><ele>234.0</ele><time>2026-04-02T14:18:23.982Z</time></trkpt><trkpt lat="43.80263442726129" lon="7.676408348114166"><ele>234.0</ele><time>2026-04-02T14:18:31.981Z</time></trkpt><trkpt lat="43.80269626176785" lon="7.676489696043047"><ele>233.99999999999997</ele><time>2026-04-02T14:18:33.981Z</time></trkpt><trkpt lat="43.802774563427306" lon="7.676536187559865"><ele>233.99999999999997</ele><time>2026-04-02T14:18:35.981Z</time></trkpt><trkpt lat="43.802835446225714" lon="7.676511527730452"><ele>234.0</ele><time>2026-04-02T14:18:37.981Z</time></trkpt><trkpt lat="43.80292636951517" lon="7.676367438350268"><ele>234.0</ele><time>2026-04-02T14:18:39.981Z</time></trkpt><trkpt lat="43.802990425900916" lon="7.6762452400570425"><ele>234.0</ele><time>2026-04-02T14:18:41.981Z</time></trkpt><trkpt lat="43.80308867092184" lon="7.6761917835228175"><ele>233.99999999999997</ele><time>2026-04-02T14:18:43.981Z</time></trkpt><trkpt lat="43.80316261555244" lon="7.6761919621812735"><ele>233.99999999999997</ele><time>2026-04-02T14:18:44.981Z</time></trkpt><trkpt lat="43.80328996661413" lon="7.676213800232592"><ele>234.0</ele><time>2026-04-02T14:18:46.981Z</time></trkpt><trkpt lat="43.80335568311629" lon="7.676226070897177"><ele>234.0</ele><time>2026-04-02T14:18:47.981Z</time></trkpt><trkpt lat="43.803468930221655" lon="7.676232197499083"><ele>229.0</ele><time>2026-04-02T14:18:49.981Z</time></trkpt><trkpt lat="43.8035890290814" lon="7.676215982770692"><ele>224.0</ele><time>2026-04-02T14:18:51.981Z</time></trkpt><trkpt lat="43.803710488113126" lon="7.676230186287374"><ele>219.0</ele><time>2026-04-02T14:18:53.981Z</time></trkpt><trkpt lat="43.80382268606291" lon="7.676290902028893"><ele>214.0</ele><time>2026-04-02T14:18:55.981Z</time></trkpt><trkpt lat="43.803905725111704" lon="7.676417383365917"><ele>214.0</ele><time>2026-04-02T14:18:57.981Z</time></trkpt><trkpt lat="43.8039388051273" lon="7.6765097070288295"><ele>213.99999999999997</ele><time>2026-04-02T14:18:58.981Z</time></trkpt><trkpt lat="43.803965625708216" lon="7.6765904891569665"><ele>213.99999999999997</ele><time>2026-04-02T14:18:59.981Z</time></trkpt><trkpt lat="43.80399752345963" lon="7.6767418898452515"><ele>214.0</ele><time>2026-04-02T14:19:01.981Z</time></trkpt><trkpt lat="43.80402873229031" lon="7.6768520836174"><ele>214.0</ele><time>2026-04-02T14:19:03.981Z</time></trkpt><trkpt lat="43.80408052018883" lon="7.676989646788219"><ele>218.39999999999998</ele><time>2026-04-02T14:19:05.981Z</time></trkpt><trkpt lat="43.80414067469161" lon="7.677098874555459"><ele>222.79999999999998</ele><time>2026-04-02T14:19:07.981Z</time></trkpt><trkpt lat="43.80424345385692" lon="7.67711470707505"><ele>227.20000000000002</ele><time>2026-04-02T14:19:09.981Z</time></trkpt><trkpt lat="43.8043343548269" lon="7.677040471217331"><ele>231.60000000000002</ele><time>2026-04-02T14:19:11.981Z</time></trkpt><trkpt lat="43.80444167860913" lon="7.676986025654991"><ele>236.0</ele><time>2026-04-02T14:19:13.981Z</time></trkpt><trkpt lat="43.80450976930732" lon="7.676973418593058"><ele>237.00000000000003</ele><time>2026-04-02T14:19:14.981Z</time></trkpt><trkpt lat="43.80457193498301" lon="7.6769376512875285"><ele>238.0</ele><time>2026-04-02T14:19:15.981Z</time></trkpt><trkpt lat="43.80467052989483" lon="7.676879994071927"><ele>239.0</ele><time>2026-04-02T14:19:17.98Z</time></trkpt><trkpt lat="43.80474002100975" lon="7.676848858887513"><ele>240.0</ele><time>2026-04-02T14:19:18.98Z</time></trkpt><trkpt lat="43.804806998621615" lon="7.6768321307251925"><ele>241.00000000000003</ele><time>2026-04-02T14:19:19.98Z</time></trkpt><trkpt lat="43.80492679720364" lon="7.676816453555249"><ele>242.0</ele><time>2026-04-02T14:19:21.98Z</time></trkpt><trkpt lat="43.80505301780256" lon="7.676846841254644"><ele>238.39999999999998</ele><time>2026-04-02T14:19:23.98Z</time></trkpt><trkpt lat="43.80516667719808" lon="7.6768625783532345"><ele>234.79999999999998</ele><time>2026-04-02T14:19:25.98Z</time></trkpt><trkpt lat="43.80528443436205" lon="7.676931353218852"><ele>231.2</ele><time>2026-04-02T14:19:27.98Z</time></trkpt><trkpt lat="43.80534902351452" lon="7.676980809360584"><ele>227.6</ele><time>2026-04-02T14:19:28.98Z</time></trkpt><trkpt lat="43.80541078949738" lon="7.677028276527907"><ele>224.0</ele><time>2026-04-02T14:19:29.98Z</time></trkpt><trkpt lat="43.805475362197924" lon="7.677061179941639"><ele>224.0</ele><time>2026-04-02T14:19:30.98Z</time></trkpt><trkpt lat="43.80558238282282" lon="7.677105277303198"><ele>223.99999999999997</ele><time>2026-04-02T14:19:32.98Z</time></trkpt><trkpt lat="43.80569712840869" lon="7.677142862945149"><ele>223.99999999999997</ele><time>2026-04-02T14:19:34.98Z</time></trkpt><trkpt lat="43.80580372635521" lon="7.677134783750222"><ele>224.0</ele><time>2026-04-02T14:19:36.98Z</time></trkpt><trkpt lat="43.80586758490676" lon="7.677135558428293"><ele>224.0</ele><time>2026-04-02T14:19:37.98Z</time></trkpt><trkpt lat="43.80599059798732" lon="7.677158806743258"><ele>223.2</ele><time>2026-04-02T14:19:39.98Z</time></trkpt><trkpt lat="43.80609119742479" lon="7.677252928964392"><ele>222.39999999999998</ele><time>2026-04-02T14:19:41.98Z</time></trkpt><trkpt lat="43.80613897329885" lon="7.67739587670177"><ele>221.6</ele><time>2026-04-02T14:19:43.98Z</time></trkpt><trkpt lat="43.80615595674956" lon="7.677570892010557"><ele>220.8</ele><time>2026-04-02T14:19:45.98Z</time></trkpt><trkpt lat="43.806167888387115" lon="7.677664246607092"><ele>220.0</ele><time>2026-04-02T14:19:46.98Z</time></trkpt><trkpt lat="43.80619232622144" lon="7.677823569415982"><ele>219.99999999999997</ele><time>2026-04-02T14:19:48.98Z</time></trkpt><trkpt lat="43.80616685017479" lon="7.677968852150352"><ele>220.0</ele><time>2026-04-02T14:19:50.98Z</time></trkpt><trkpt lat="43.80615701684029" lon="7.678059732664641"><ele>220.0</ele><time>2026-04-02T14:19:51.98Z</time></trkpt><trkpt lat="43.80616860867495" lon="7.678148793763704"><ele>220.0</ele><time>2026-04-02T14:20:20.979Z</time></trkpt><trkpt lat="43.80619343510513" lon="7.678257011198049"><ele>219.99999999999997</ele><time>2026-04-02T14:20:42.979Z</time></trkpt><trkpt lat="43.806222910592155" lon="7.678343064918049"><ele>220.0</ele><time>2026-04-02T14:20:44.979Z</time></trkpt><trkpt lat="43.80631854994844" lon="7.6784045212802345"><ele>220.0</ele><time>2026-04-02T14:20:45.979Z</time></trkpt><trkpt lat="43.80643346515524" lon="7.678445321376491"><ele>220.0</ele><time>2026-04-02T14:20:47.979Z</time></trkpt><trkpt lat="43.80650181847147" lon="7.678412512297922"><ele>220.0</ele><time>2026-04-02T14:20:48.979Z</time></trkpt><trkpt lat="43.80652966819491" lon="7.678321801437117"><ele>220.0</ele><time>2026-04-02T14:20:49.979Z</time></trkpt><trkpt lat="43.80656158384569" lon="7.678207432029584"><ele>220.0</ele><time>2026-04-02T14:20:51.979Z</time></trkpt><trkpt lat="43.80663601472249" lon="7.678094123038555"><ele>219.99999999999997</ele><time>2026-04-02T14:20:53.979Z</time></trkpt><trkpt lat="43.806681353396115" lon="7.678027021773651"><ele>220.0</ele><time>2026-04-02T14:20:54.979Z</time></trkpt><trkpt lat="43.80673073011823" lon="7.677956318844478"><ele>220.0</ele><time>2026-04-02T14:20:55.979Z</time></trkpt><trkpt lat="43.806769153269904" lon="7.677868124665517"><ele>220.0</ele><time>2026-04-02T14:20:56.979Z</time></trkpt><trkpt lat="43.80686134079862" lon="7.677766299732641"><ele>219.99999999999997</ele><time>2026-04-02T14:20:58.979Z</time></trkpt><trkpt lat="43.80692334121037" lon="7.677690041450383"><ele>220.0</ele><time>2026-04-02T14:21:00.978Z</time></trkpt><trkpt lat="43.80700998414301" lon="7.677651847802673"><ele>220.8</ele><time>2026-04-02T14:21:02.978Z</time></trkpt><trkpt lat="43.807099471282314" lon="7.677645798258381"><ele>221.6</ele><time>2026-04-02T14:21:04.978Z</time></trkpt><trkpt lat="43.80722221265176" lon="7.677684538530236"><ele>222.39999999999998</ele><time>2026-04-02T14:21:06.978Z</time></trkpt><trkpt lat="43.80733170619457" lon="7.677746426377798"><ele>223.2</ele><time>2026-04-02T14:21:08.978Z</time></trkpt><trkpt lat="43.8074024493519" lon="7.677782433804566"><ele>224.0</ele><time>2026-04-02T14:21:09.978Z</time></trkpt><trkpt lat="43.80749093831642" lon="7.677794945225546"><ele>224.00000000000003</ele><time>2026-04-02T14:21:10.978Z</time></trkpt><trkpt lat="43.80756939975671" lon="7.6778235755053155"><ele>224.0</ele><time>2026-04-02T14:21:11.978Z</time></trkpt><trkpt lat="43.807648718057095" lon="7.677831428034616"><ele>224.0</ele><time>2026-04-02T14:21:12.978Z</time></trkpt><trkpt lat="43.80771933016808" lon="7.677868704012679"><ele>224.0</ele><time>2026-04-02T14:21:13.978Z</time></trkpt><trkpt lat="43.807802634527974" lon="7.677920759448081"><ele>224.00000000000003</ele><time>2026-04-02T14:21:14.978Z</time></trkpt><trkpt lat="43.80786337760238" lon="7.677975523463101"><ele>224.0</ele><time>2026-04-02T14:21:15.978Z</time></trkpt><trkpt lat="43.80792654671793" lon="7.678005656908341"><ele>221.50000000000003</ele><time>2026-04-02T14:21:16.978Z</time></trkpt><trkpt lat="43.80798980351495" lon="7.67805014820903"><ele>219.0</ele><time>2026-04-02T14:21:17.978Z</time></trkpt><trkpt lat="43.808059099355674" lon="7.678075001698899"><ele>216.5</ele><time>2026-04-02T14:21:18.978Z</time></trkpt><trkpt lat="43.808132989455174" lon="7.678108772212589"><ele>214.0</ele><time>2026-04-02T14:21:19.978Z</time></trkpt><trkpt lat="43.80823092842396" lon="7.678139757370815"><ele>211.50000000000003</ele><time>2026-04-02T14:21:21.978Z</time></trkpt><trkpt lat="43.80827486521708" lon="7.678054634539714"><ele>209.0</ele><time>2026-04-02T14:21:23.978Z</time></trkpt><trkpt lat="43.80837587298379" lon="7.678036970929595"><ele>209.00000000000003</ele><time>2026-04-02T14:21:25.978Z</time></trkpt><trkpt lat="43.808460150697485" lon="7.678035282807665"><ele>209.0</ele><time>2026-04-02T14:21:27.978Z</time></trkpt><trkpt lat="43.808538521458395" lon="7.6780376118061975"><ele>209.0</ele><time>2026-04-02T14:21:30.978Z</time></trkpt><trkpt lat="43.808568178502995" lon="7.6781596323346495"><ele>209.0</ele><time>2026-04-02T14:21:31.978Z</time></trkpt><trkpt lat="43.80859676768116" lon="7.678253557591707"><ele>209.00000000000003</ele><time>2026-04-02T14:21:32.978Z</time></trkpt><trkpt lat="43.80862256902321" lon="7.67835036798442"><ele>209.0</ele><time>2026-04-02T14:21:33.978Z</time></trkpt><trkpt lat="43.80865644555897" lon="7.678456744348677"><ele>207.42857142857142</ele><time>2026-04-02T14:21:34.978Z</time></trkpt><trkpt lat="43.80869516231901" lon="7.678536174574975"><ele>205.85714285714283</ele><time>2026-04-02T14:21:35.978Z</time></trkpt><trkpt lat="43.808721209535335" lon="7.678630652671428"><ele>204.28571428571428</ele><time>2026-04-02T14:21:36.978Z</time></trkpt><trkpt lat="43.808772132522265" lon="7.678707613996582"><ele>202.71428571428572</ele><time>2026-04-02T14:21:37.978Z</time></trkpt><trkpt lat="43.80883364027325" lon="7.678755405929501"><ele>201.14285714285714</ele><time>2026-04-02T14:21:38.978Z</time></trkpt><trkpt lat="43.808884321017565" lon="7.67883170998211"><ele>199.57142857142858</ele><time>2026-04-02T14:21:39.978Z</time></trkpt><trkpt lat="43.80893876039085" lon="7.678890911134815"><ele>198.0</ele><time>2026-04-02T14:21:40.978Z</time></trkpt><trkpt lat="43.80899823630793" lon="7.678960000746749"><ele>202.16666666666666</ele><time>2026-04-02T14:21:41.978Z</time></trkpt><trkpt lat="43.809045624425835" lon="7.679047630290023"><ele>206.33333333333331</ele><time>2026-04-02T14:21:42.978Z</time></trkpt><trkpt lat="43.809099258591644" lon="7.679117036568768"><ele>210.5</ele><time>2026-04-02T14:21:43.978Z</time></trkpt><trkpt lat="43.809151286853925" lon="7.679195176249491"><ele>214.66666666666666</ele><time>2026-04-02T14:21:44.978Z</time></trkpt><trkpt lat="43.80918943366053" lon="7.679281506642513"><ele>218.83333333333331</ele><time>2026-04-02T14:21:45.978Z</time></trkpt><trkpt lat="43.80919023369622" lon="7.679370860100194"><ele>223.0</ele><time>2026-04-02T14:21:48.978Z</time></trkpt><trkpt lat="43.80907446352168" lon="7.679327695960511"><ele>222.99999999999997</ele><time>2026-04-02T14:21:50.978Z</time></trkpt><trkpt lat="43.808945387544675" lon="7.679312451421762"><ele>223.0</ele><time>2026-04-02T14:21:52.977Z</time></trkpt><trkpt lat="43.8088718849305" lon="7.679298566193043"><ele>223.0</ele><time>2026-04-02T14:21:53.977Z</time></trkpt><trkpt lat="43.808794925169224" lon="7.679274787279234"><ele>223.0</ele><time>2026-04-02T14:21:54.977Z</time></trkpt><trkpt lat="43.80872046154563" lon="7.679229909683165"><ele>222.99999999999997</ele><time>2026-04-02T14:21:55.977Z</time></trkpt><trkpt lat="43.80864624499732" lon="7.67920877324472"><ele>223.0</ele><time>2026-04-02T14:21:56.977Z</time></trkpt><trkpt lat="43.80857121994963" lon="7.679223735266798"><ele>223.0</ele><time>2026-04-02T14:21:57.977Z</time></trkpt><trkpt lat="43.80850612983784" lon="7.679190043552879"><ele>223.0</ele><time>2026-04-02T14:21:58.977Z</time></trkpt><trkpt lat="43.80843706854847" lon="7.679166482591676"><ele>223.0</ele><time>2026-04-02T14:21:59.977Z</time></trkpt><trkpt lat="43.808333983418784" lon="7.679129708909708"><ele>223.0</ele><time>2026-04-02T14:22:01.977Z</time></trkpt><trkpt lat="43.80834015913278" lon="7.679377337981775"><ele>223.0</ele><time>2026-04-02T14:22:05.977Z</time></trkpt><trkpt lat="43.80844119180362" lon="7.679436539201142"><ele>228.33333333333331</ele><time>2026-04-02T14:22:06.977Z</time></trkpt><trkpt lat="43.808526532515174" lon="7.679461397478572"><ele>233.66666666666666</ele><time>2026-04-02T14:22:07.977Z</time></trkpt><trkpt lat="43.808590598765605" lon="7.6794931623673595"><ele>239.0</ele><time>2026-04-02T14:22:08.997Z</time></trkpt><trkpt lat="43.80868466361076" lon="7.67956887068222"><ele>244.33333333333331</ele><time>2026-04-02T14:22:10.997Z</time></trkpt><trkpt lat="43.808700162505836" lon="7.679656465672782"><ele>249.66666666666666</ele><time>2026-04-02T14:22:11.997Z</time></trkpt><trkpt lat="43.8087485681786" lon="7.679732895436105"><ele>255.0</ele><time>2026-04-02T14:22:12.997Z</time></trkpt><trkpt lat="43.80881575930877" lon="7.679799110625003"><ele>255.0</ele><time>2026-04-02T14:22:13.997Z</time></trkpt><trkpt lat="43.8088850189466" lon="7.679846351298374"><ele>255.0</ele><time>2026-04-02T14:22:14.997Z</time></trkpt><trkpt lat="43.80894102222287" lon="7.679905840341283"><ele>255.0</ele><time>2026-04-02T14:22:15.997Z</time></trkpt><trkpt lat="43.80900095647421" lon="7.679959873521144"><ele>255.0</ele><time>2026-04-02T14:22:40.996Z</time></trkpt><trkpt lat="43.80906711445217" lon="7.680049896264885"><ele>255.0</ele><time>2026-04-02T14:22:42.996Z</time></trkpt><trkpt lat="43.80916511431123" lon="7.680144999861509"><ele>255.0</ele><time>2026-04-02T14:22:44.996Z</time></trkpt><trkpt lat="43.80916965151014" lon="7.680289549245993"><ele>257.4</ele><time>2026-04-02T14:22:46.996Z</time></trkpt><trkpt lat="43.809303598880334" lon="7.680378472211187"><ele>259.8</ele><time>2026-04-02T14:22:48.996Z</time></trkpt><trkpt lat="43.809405678150014" lon="7.68039957619951"><ele>262.2</ele><time>2026-04-02T14:22:50.996Z</time></trkpt><trkpt lat="43.80946914068646" lon="7.680397326497824"><ele>264.6</ele><time>2026-04-02T14:22:51.998Z</time></trkpt><trkpt lat="43.80954199277618" lon="7.680420295359166"><ele>267.0</ele><time>2026-04-02T14:22:52.998Z</time></trkpt><trkpt lat="43.80960993466977" lon="7.6804317515572755"><ele>267.0</ele><time>2026-04-02T14:22:53.998Z</time></trkpt><trkpt lat="43.80970079175416" lon="7.680469299818852"><ele>267.0</ele><time>2026-04-02T14:22:55.998Z</time></trkpt><trkpt lat="43.80976241904024" lon="7.6804992497870375"><ele>267.0</ele><time>2026-04-02T14:22:56.998Z</time></trkpt><trkpt lat="43.80981190749819" lon="7.680564428431556"><ele>267.0</ele><time>2026-04-02T14:22:57.998Z</time></trkpt><trkpt lat="43.809896367426006" lon="7.680658176463081"><ele>267.0</ele><time>2026-04-02T14:22:59.999Z</time></trkpt><trkpt lat="43.80992195340148" lon="7.680771925994046"><ele>267.0</ele><time>2026-04-02T14:23:01.998Z</time></trkpt><trkpt lat="43.80984041894731" lon="7.680920665654783"><ele>267.0</ele><time>2026-04-02T14:23:03.998Z</time></trkpt><trkpt lat="43.80982547031441" lon="7.681031001173678"><ele>267.0</ele><time>2026-04-02T14:23:04.999Z</time></trkpt><trkpt lat="43.809811724010146" lon="7.68115832175517"><ele>267.0</ele><time>2026-04-02T14:23:05.999Z</time></trkpt><trkpt lat="43.80980600989641" lon="7.681280378441333"><ele>267.0</ele><time>2026-04-02T14:23:06.999Z</time></trkpt><trkpt lat="43.809822210790486" lon="7.6813879103161975"><ele>267.0</ele><time>2026-04-02T14:23:07.998Z</time></trkpt><trkpt lat="43.80981910362064" lon="7.681493230817199"><ele>267.0</ele><time>2026-04-02T14:23:08.998Z</time></trkpt><trkpt lat="43.80983824345511" lon="7.681658717391309"><ele>270.3333333333333</ele><time>2026-04-02T14:23:10.998Z</time></trkpt><trkpt lat="43.80985001337039" lon="7.681745378464189"><ele>273.6666666666667</ele><time>2026-04-02T14:23:11.998Z</time></trkpt><trkpt lat="43.809857948088585" lon="7.681849455563515"><ele>277.0</ele><time>2026-04-02T14:23:12.998Z</time></trkpt><trkpt lat="43.80987456339241" lon="7.681960593863838"><ele>280.33333333333337</ele><time>2026-04-02T14:23:13.998Z</time></trkpt><trkpt lat="43.80988863979443" lon="7.682073808400152"><ele>283.6666666666667</ele><time>2026-04-02T14:23:14.998Z</time></trkpt><trkpt lat="43.809900780938754" lon="7.682185821177898"><ele>287.0</ele><time>2026-04-02T14:23:15.998Z</time></trkpt><trkpt lat="43.809896461417246" lon="7.682291309001981"><ele>291.0</ele><time>2026-04-02T14:23:16.998Z</time></trkpt><trkpt lat="43.80987611671048" lon="7.682394866394784"><ele>295.0</ele><time>2026-04-02T14:23:17.998Z</time></trkpt><trkpt lat="43.809852997479794" lon="7.682498537788276"><ele>299.0</ele><time>2026-04-02T14:23:18.998Z</time></trkpt><trkpt lat="43.80984951914351" lon="7.68264931519198"><ele>303.0</ele><time>2026-04-02T14:23:20.998Z</time></trkpt><trkpt lat="43.809881333237605" lon="7.682786708009282"><ele>307.0</ele><time>2026-04-02T14:23:22.998Z</time></trkpt><trkpt lat="43.80990236582457" lon="7.682954062781942"><ele>310.8</ele><time>2026-04-02T14:23:24.998Z</time></trkpt><trkpt lat="43.80993276867331" lon="7.683067493423783"><ele>314.6</ele><time>2026-04-02T14:23:26.998Z</time></trkpt><trkpt lat="43.809967612605455" lon="7.683141625627463"><ele>318.40000000000003</ele><time>2026-04-02T14:23:28.998Z</time></trkpt><trkpt lat="43.810033503996884" lon="7.6832677609469675"><ele>322.2</ele><time>2026-04-02T14:23:31.998Z</time></trkpt><trkpt lat="43.810153258237996" lon="7.683225841019672"><ele>326.0</ele><time>2026-04-02T14:23:33.998Z</time></trkpt><trkpt lat="43.810200978417996" lon="7.683137077034735"><ele>328.6</ele><time>2026-04-02T14:23:34.998Z</time></trkpt><trkpt lat="43.81022549480008" lon="7.6830179449605485"><ele>331.20000000000005</ele><time>2026-04-02T14:23:35.998Z</time></trkpt><trkpt lat="43.81027004217327" lon="7.682838657327923"><ele>333.79999999999995</ele><time>2026-04-02T14:23:37.998Z</time></trkpt><trkpt lat="43.81029711245074" lon="7.6827487944647945"><ele>336.4</ele><time>2026-04-02T14:23:38.998Z</time></trkpt><trkpt lat="43.81035486915244" lon="7.682672808093432"><ele>339.0</ele><time>2026-04-02T14:23:40.998Z</time></trkpt><trkpt lat="43.81043034630559" lon="7.682628401698416"><ele>334.1666666666667</ele><time>2026-04-02T14:23:43.998Z</time></trkpt><trkpt lat="43.810504211825055" lon="7.68256955212061"><ele>329.3333333333333</ele><time>2026-04-02T14:24:42.997Z</time></trkpt><trkpt lat="43.81056615877553" lon="7.68251543681735"><ele>324.5</ele><time>2026-04-02T14:24:44.997Z</time></trkpt><trkpt lat="43.81061960966119" lon="7.682464457825109"><ele>319.66666666666663</ele><time>2026-04-02T14:24:46.997Z</time></trkpt><trkpt lat="43.810673422238246" lon="7.68240487329771"><ele>314.8333333333333</ele><time>2026-04-02T14:24:48.997Z</time></trkpt><trkpt lat="43.81073406124555" lon="7.682323525633169"><ele>310.0</ele><time>2026-04-02T14:24:50.996Z</time></trkpt><trkpt lat="43.81079424147925" lon="7.682222326520481"><ele>310.0</ele><time>2026-04-02T14:24:52.996Z</time></trkpt><trkpt lat="43.810846323937525" lon="7.682130040791274"><ele>310.0</ele><time>2026-04-02T14:24:54.996Z</time></trkpt><trkpt lat="43.81090436631352" lon="7.682046847032451"><ele>310.0</ele><time>2026-04-02T14:24:57.998Z</time></trkpt><trkpt lat="43.810958242187816" lon="7.681985355385435"><ele>310.0</ele><time>2026-04-02T14:25:00.998Z</time></trkpt><trkpt lat="43.811016649294054" lon="7.681948503289506"><ele>310.0</ele><time>2026-04-02T14:25:04.998Z</time></trkpt><trkpt lat="43.81108132621839" lon="7.681906957277917"><ele>310.0</ele><time>2026-04-02T14:25:07.999Z</time></trkpt><trkpt lat="43.81115658596058" lon="7.681858620813875"><ele>310.0</ele><time>2026-04-02T14:25:10.999Z</time></trkpt><trkpt lat="43.81126433205342" lon="7.682023027084157"><ele>310.0</ele><time>2026-04-02T14:25:12.999Z</time></trkpt><trkpt lat="43.811328405535626" lon="7.682036630796123"><ele>310.0</ele><time>2026-04-02T14:25:14.998Z</time></trkpt><trkpt lat="43.81143061362142" lon="7.682098972863661"><ele>310.0</ele><time>2026-04-02T14:25:16.998Z</time></trkpt><trkpt lat="43.811478600739896" lon="7.682165763854436"><ele>310.0</ele><time>2026-04-02T14:25:18.998Z</time></trkpt><trkpt lat="43.81154661002454" lon="7.682266786766944"><ele>310.0</ele><time>2026-04-02T14:25:20.998Z</time></trkpt><trkpt lat="43.81159618331894" lon="7.682364518619891"><ele>310.0</ele><time>2026-04-02T14:25:22.998Z</time></trkpt><trkpt lat="43.81165151895084" lon="7.682472920006907"><ele>310.0</ele><time>2026-04-02T14:25:24.998Z</time></trkpt><trkpt lat="43.811685323129495" lon="7.682574400120309"><ele>310.0</ele><time>2026-04-02T14:25:26.998Z</time></trkpt><trkpt lat="43.811734250303985" lon="7.68263934828731"><ele>310.0</ele><time>2026-04-02T14:25:29.998Z</time></trkpt><trkpt lat="43.81177049783786" lon="7.68274797535314"><ele>310.0</ele><time>2026-04-02T14:25:37.998Z</time></trkpt><trkpt lat="43.81179148560795" lon="7.682870618809728"><ele>307.66666666666663</ele><time>2026-04-02T14:25:40.998Z</time></trkpt><trkpt lat="43.811834885320174" lon="7.682977885546555"><ele>305.3333333333333</ele><time>2026-04-02T14:25:43.998Z</time></trkpt><trkpt lat="43.81183405003174" lon="7.683099994780802"><ele>303.0</ele><time>2026-04-02T14:25:47.998Z</time></trkpt><trkpt lat="43.81187388860807" lon="7.683242071405293"><ele>300.6666666666667</ele><time>2026-04-02T14:26:07.997Z</time></trkpt><trkpt lat="43.811848633098" lon="7.683336196703088"><ele>298.33333333333337</ele><time>2026-04-02T14:26:09.997Z</time></trkpt><trkpt lat="43.811837473516526" lon="7.683433790901733"><ele>296.0</ele><time>2026-04-02T14:26:11.997Z</time></trkpt><trkpt lat="43.81182551319302" lon="7.683519548236521"><ele>300.0</ele><time>2026-04-02T14:26:13.997Z</time></trkpt><trkpt lat="43.81184254936935" lon="7.683657328397402"><ele>304.0</ele><time>2026-04-02T14:26:16.997Z</time></trkpt><trkpt lat="43.811842408910024" lon="7.683766381188667"><ele>308.0</ele><time>2026-04-02T14:26:18.997Z</time></trkpt><trkpt lat="43.81180328650778" lon="7.683883134659684"><ele>312.0</ele><time>2026-04-02T14:26:20.997Z</time></trkpt><trkpt lat="43.81177850129115" lon="7.683966475339672"><ele>316.0</ele><time>2026-04-02T14:26:22.997Z</time></trkpt><trkpt lat="43.8117635241994" lon="7.68405587693433"><ele>320.0</ele><time>2026-04-02T14:26:25.997Z</time></trkpt><trkpt lat="43.81174492594121" lon="7.684159735348796"><ele>324.0</ele><time>2026-04-02T14:26:34.997Z</time></trkpt><trkpt lat="43.81173350474988" lon="7.684248745092065"><ele>328.0</ele><time>2026-04-02T14:26:38.997Z</time></trkpt><trkpt lat="43.811728660528985" lon="7.6843721480209535"><ele>332.0</ele><time>2026-04-02T14:26:47.997Z</time></trkpt><trkpt lat="43.81173084622461" lon="7.684462048653851"><ele>336.0</ele><time>2026-04-02T14:26:51.997Z</time></trkpt><trkpt lat="43.81165476820806" lon="7.684411003329623"><ele>340.0</ele><time>2026-04-02T14:26:57.997Z</time></trkpt><trkpt lat="43.811630394442055" lon="7.684319184264167"><ele>344.0</ele><time>2026-04-02T14:27:01.996Z</time></trkpt><trkpt lat="43.811636118149096" lon="7.684226870467468"><ele>348.0</ele><time>2026-04-02T14:27:05.998Z</time></trkpt><trkpt lat="43.8115833895199" lon="7.684281236352214"><ele>348.0</ele><time>2026-04-02T14:27:09.999Z</time></trkpt><trkpt lat="43.811568406983255" lon="7.684375831642373"><ele>348.0</ele><time>2026-04-02T14:27:19.998Z</time></trkpt><trkpt lat="43.811562132469355" lon="7.684520250679033"><ele>348.0</ele><time>2026-04-02T14:27:23.998Z</time></trkpt><trkpt lat="43.811577616734354" lon="7.6846460646791925"><ele>348.0</ele><time>2026-04-02T14:27:25.998Z</time></trkpt><trkpt lat="43.81157793822295" lon="7.684742420477496"><ele>348.0</ele><time>2026-04-02T14:27:27.998Z</time></trkpt><trkpt lat="43.81162268128712" lon="7.68482396260059"><ele>348.0</ele><time>2026-04-02T14:27:29.998Z</time></trkpt><trkpt lat="43.81166781588895" lon="7.684937575858343"><ele>350.5</ele><time>2026-04-02T14:27:31.998Z</time></trkpt><trkpt lat="43.81168848659555" lon="7.685055978522765"><ele>353.0</ele><time>2026-04-02T14:27:33.997Z</time></trkpt><trkpt lat="43.81167800191086" lon="7.68517604373703"><ele>355.5</ele><time>2026-04-02T14:27:35.997Z</time></trkpt><trkpt lat="43.81167472489541" lon="7.685289875344119"><ele>358.0</ele><time>2026-04-02T14:27:38.997Z</time></trkpt><trkpt lat="43.811703078797244" lon="7.68536898359563"><ele>360.5</ele><time>2026-04-02T14:28:06.997Z</time></trkpt><trkpt lat="43.81172447688153" lon="7.685478476846125"><ele>363.0</ele><time>2026-04-02T14:28:45.996Z</time></trkpt><trkpt lat="43.811775950460515" lon="7.685567340130703"><ele>365.1666666666667</ele><time>2026-04-02T14:28:51.996Z</time></trkpt><trkpt lat="43.811795386968285" lon="7.6856543932618075"><ele>367.3333333333333</ele><time>2026-04-02T14:28:53.996Z</time></trkpt><trkpt lat="43.81182715326473" lon="7.685774584209419"><ele>369.5</ele><time>2026-04-02T14:28:55.996Z</time></trkpt><trkpt lat="43.8118536584646" lon="7.685904364686202"><ele>371.66666666666663</ele><time>2026-04-02T14:28:57.996Z</time></trkpt><trkpt lat="43.81186216974249" lon="7.686009659418782"><ele>373.8333333333333</ele><time>2026-04-02T14:29:01.996Z</time></trkpt><trkpt lat="43.81187805951212" lon="7.686115894574006"><ele>376.0</ele><time>2026-04-02T14:29:04.996Z</time></trkpt><trkpt lat="43.81194554594332" lon="7.686144135515909"><ele>376.0</ele><time>2026-04-02T14:29:12.998Z</time></trkpt><trkpt lat="43.81201441569713" lon="7.686130982485122"><ele>376.0</ele><time>2026-04-02T14:29:14.998Z</time></trkpt><trkpt lat="43.81207548213054" lon="7.686077804481981"><ele>376.0</ele><time>2026-04-02T14:29:16.998Z</time></trkpt><trkpt lat="43.812133283908935" lon="7.686002453814048"><ele>376.0</ele><time>2026-04-02T14:29:18.998Z</time></trkpt><trkpt lat="43.81220295620245" lon="7.685924862742225"><ele>376.0</ele><time>2026-04-02T14:29:20.997Z</time></trkpt><trkpt lat="43.8122751139149" lon="7.6859341894666295"><ele>376.0</ele><time>2026-04-02T14:29:22.998Z</time></trkpt><trkpt lat="43.81235623026995" lon="7.685941428702795"><ele>376.0</ele><time>2026-04-02T14:29:24.998Z</time></trkpt><trkpt lat="43.81246525386373" lon="7.685908307948908"><ele>376.0</ele><time>2026-04-02T14:29:26.998Z</time></trkpt><trkpt lat="43.81255242368132" lon="7.685861479970566"><ele>376.0</ele><time>2026-04-02T14:29:28.998Z</time></trkpt><trkpt lat="43.812640450073914" lon="7.6858069893433605"><ele>376.0</ele><time>2026-04-02T14:29:30.998Z</time></trkpt><trkpt lat="43.81269446333019" lon="7.685735611742994"><ele>376.0</ele><time>2026-04-02T14:29:32.998Z</time></trkpt><trkpt lat="43.812759462914336" lon="7.68567709452516"><ele>376.0</ele><time>2026-04-02T14:29:34.998Z</time></trkpt><trkpt lat="43.81285654712627" lon="7.685665611367607"><ele>376.0</ele><time>2026-04-02T14:29:36.998Z</time></trkpt><trkpt lat="43.81295198544512" lon="7.685700617498287"><ele>376.0</ele><time>2026-04-02T14:29:38.998Z</time></trkpt><trkpt lat="43.8130352236665" lon="7.685752506920506"><ele>376.0</ele><time>2026-04-02T14:29:40.998Z</time></trkpt><trkpt lat="43.81309643607904" lon="7.685832336382125"><ele>376.0</ele><time>2026-04-02T14:29:42.998Z</time></trkpt><trkpt lat="43.813040201518206" lon="7.685885786132101"><ele>376.0</ele><time>2026-04-02T14:29:52.997Z</time></trkpt><trkpt lat="43.81297043965653" lon="7.685810513322605"><ele>376.0</ele><time>2026-04-02T14:29:54.997Z</time></trkpt><trkpt lat="43.81288383063072" lon="7.685815080687541"><ele>376.0</ele><time>2026-04-02T14:29:56.997Z</time></trkpt><trkpt lat="43.81283166462412" lon="7.685912692506877"><ele>376.0</ele><time>2026-04-02T14:29:58.997Z</time></trkpt><trkpt lat="43.81277241997024" lon="7.686041355039111"><ele>376.0</ele><time>2026-04-02T14:30:00.997Z</time></trkpt><trkpt lat="43.81273373452254" lon="7.686111370032604"><ele>376.0</ele><time>2026-04-02T14:30:01.997Z</time></trkpt><trkpt lat="43.81265615306748" lon="7.6861903288093405"><ele>376.0</ele><time>2026-04-02T14:30:03.997Z</time></trkpt><trkpt lat="43.81258124989516" lon="7.6862802640081895"><ele>382.4</ele><time>2026-04-02T14:30:05.997Z</time></trkpt><trkpt lat="43.812492895669685" lon="7.686314957257202"><ele>388.8</ele><time>2026-04-02T14:30:07.997Z</time></trkpt><trkpt lat="43.812377974571724" lon="7.68633549803112"><ele>395.2</ele><time>2026-04-02T14:30:09.997Z</time></trkpt><trkpt lat="43.812329108186695" lon="7.68641988301023"><ele>401.59999999999997</ele><time>2026-04-02T14:30:12.997Z</time></trkpt><trkpt lat="43.812260771556005" lon="7.686507588771276"><ele>408.0</ele><time>2026-04-02T14:30:15.997Z</time></trkpt><trkpt lat="43.81216531475979" lon="7.686626767941307"><ele>408.0</ele><time>2026-04-02T14:30:17.997Z</time></trkpt><trkpt lat="43.812101102576456" lon="7.686674296516855"><ele>408.0</ele><time>2026-04-02T14:30:18.997Z</time></trkpt><trkpt lat="43.812036378238936" lon="7.6867557988202355"><ele>408.0</ele><time>2026-04-02T14:30:20.997Z</time></trkpt><trkpt lat="43.81197400904607" lon="7.686809467775205"><ele>408.0</ele><time>2026-04-02T14:30:22.997Z</time></trkpt><trkpt lat="43.81189720060369" lon="7.686826883788168"><ele>408.0</ele><time>2026-04-02T14:30:24.997Z</time></trkpt><trkpt lat="43.811822029291235" lon="7.686750784807162"><ele>408.0</ele><time>2026-04-02T14:30:26.997Z</time></trkpt><trkpt lat="43.81174056518122" lon="7.6866698076137805"><ele>408.3333333333333</ele><time>2026-04-02T14:30:28.997Z</time></trkpt><trkpt lat="43.81166128131056" lon="7.686585394692464"><ele>408.66666666666663</ele><time>2026-04-02T14:30:30.997Z</time></trkpt><trkpt lat="43.81159581475251" lon="7.686486124510714"><ele>409.0</ele><time>2026-04-02T14:30:32.997Z</time></trkpt><trkpt lat="43.81155035190652" lon="7.686407050841648"><ele>409.3333333333333</ele><time>2026-04-02T14:30:34.997Z</time></trkpt><trkpt lat="43.81151525571194" lon="7.686325661180905"><ele>409.66666666666663</ele><time>2026-04-02T14:30:35.997Z</time></trkpt><trkpt lat="43.811463970595" lon="7.686191676344763"><ele>410.0</ele><time>2026-04-02T14:30:37.997Z</time></trkpt><trkpt lat="43.811409871163214" lon="7.68604000386135"><ele>405.2</ele><time>2026-04-02T14:30:39.997Z</time></trkpt><trkpt lat="43.811374111518795" lon="7.6859583506728155"><ele>400.4</ele><time>2026-04-02T14:30:40.997Z</time></trkpt><trkpt lat="43.81129362369292" lon="7.685825258892696"><ele>395.6</ele><time>2026-04-02T14:30:42.997Z</time></trkpt><trkpt lat="43.811260956473795" lon="7.685734772446001"><ele>390.8</ele><time>2026-04-02T14:30:43.997Z</time></trkpt><trkpt lat="43.81122364209351" lon="7.685577057251269"><ele>386.0</ele><time>2026-04-02T14:30:45.996Z</time></trkpt><trkpt lat="43.81117473153322" lon="7.6854780889957075"><ele>386.0</ele><time>2026-04-02T14:30:47.996Z</time></trkpt><trkpt lat="43.811088159822866" lon="7.685399054704161"><ele>386.0</ele><time>2026-04-02T14:30:49.996Z</time></trkpt><trkpt lat="43.81104705584378" lon="7.685329809846895"><ele>386.0</ele><time>2026-04-02T14:30:52.996Z</time></trkpt><trkpt lat="43.81101458567555" lon="7.685202501715624"><ele>386.0</ele><time>2026-04-02T14:31:06.996Z</time></trkpt><trkpt lat="43.8110015791131" lon="7.685071181642431"><ele>386.0</ele><time>2026-04-02T14:31:08.996Z</time></trkpt><trkpt lat="43.810992583575114" lon="7.684928382711804"><ele>387.0</ele><time>2026-04-02T14:31:10.996Z</time></trkpt><trkpt lat="43.81099513222376" lon="7.684820826421464"><ele>388.0</ele><time>2026-04-02T14:31:12.996Z</time></trkpt><trkpt lat="43.81092709759357" lon="7.684759890688121"><ele>389.0</ele><time>2026-04-02T14:31:15.998Z</time></trkpt><trkpt lat="43.81081812456565" lon="7.684806156297229"><ele>390.0</ele><time>2026-04-02T14:31:17.998Z</time></trkpt><trkpt lat="43.81070971878661" lon="7.684911008338785"><ele>391.0</ele><time>2026-04-02T14:31:19.998Z</time></trkpt><trkpt lat="43.810620754218185" lon="7.6850312242340735"><ele>391.00000000000006</ele><time>2026-04-02T14:31:21.998Z</time></trkpt><trkpt lat="43.810532097988514" lon="7.685142312848454"><ele>391.0</ele><time>2026-04-02T14:31:23.998Z</time></trkpt><trkpt lat="43.810482434420756" lon="7.685207559804375"><ele>391.0</ele><time>2026-04-02T14:31:24.998Z</time></trkpt><trkpt lat="43.81043745875517" lon="7.685279176917254"><ele>391.0</ele><time>2026-04-02T14:31:25.998Z</time></trkpt><trkpt lat="43.81034960110547" lon="7.685356423177898"><ele>391.00000000000006</ele><time>2026-04-02T14:31:27.998Z</time></trkpt><trkpt lat="43.81029274456464" lon="7.685403898784727"><ele>391.0</ele><time>2026-04-02T14:31:29.998Z</time></trkpt><trkpt lat="43.8101767848244" lon="7.685402616908749"><ele>395.8</ele><time>2026-04-02T14:31:31.998Z</time></trkpt><trkpt lat="43.81007054315937" lon="7.685417457595939"><ele>400.6</ele><time>2026-04-02T14:31:33.998Z</time></trkpt><trkpt lat="43.80994045139987" lon="7.685409988352895"><ele>405.4</ele><time>2026-04-02T14:31:35.998Z</time></trkpt><trkpt lat="43.80986850095644" lon="7.685402892719772"><ele>410.2</ele><time>2026-04-02T14:31:36.998Z</time></trkpt><trkpt lat="43.809764303476086" lon="7.685426967627197"><ele>415.0</ele><time>2026-04-02T14:31:38.998Z</time></trkpt><trkpt lat="43.80967415882214" lon="7.6853761820846485"><ele>415.0</ele><time>2026-04-02T14:31:40.998Z</time></trkpt><trkpt lat="43.809579689564394" lon="7.685324628182076"><ele>415.0</ele><time>2026-04-02T14:31:42.998Z</time></trkpt><trkpt lat="43.80947531730643" lon="7.685337145651688"><ele>415.0</ele><time>2026-04-02T14:31:44.998Z</time></trkpt><trkpt lat="43.80939151785539" lon="7.685321719375841"><ele>415.0</ele><time>2026-04-02T14:31:46.997Z</time></trkpt><trkpt lat="43.80936376687361" lon="7.685233950063575"><ele>415.0</ele><time>2026-04-02T14:31:48.997Z</time></trkpt><trkpt lat="43.809396902804004" lon="7.685101206118805"><ele>413.33333333333337</ele><time>2026-04-02T14:31:50.997Z</time></trkpt><trkpt lat="43.809351331935574" lon="7.685036313198891"><ele>411.6666666666667</ele><time>2026-04-02T14:31:52.997Z</time></trkpt><trkpt lat="43.809255300240636" lon="7.685003364654716"><ele>410.0</ele><time>2026-04-02T14:31:54.997Z</time></trkpt><trkpt lat="43.809214591455394" lon="7.68492906886775"><ele>408.33333333333337</ele><time>2026-04-02T14:31:56.997Z</time></trkpt><trkpt lat="43.809173234680586" lon="7.68480682808058"><ele>406.6666666666667</ele><time>2026-04-02T14:31:58.997Z</time></trkpt><trkpt lat="43.80910697458562" lon="7.684693813332654"><ele>405.0</ele><time>2026-04-02T14:32:00.997Z</time></trkpt><trkpt lat="43.80905131662413" lon="7.6845802034822155"><ele>405.0</ele><time>2026-04-02T14:32:03.997Z</time></trkpt><trkpt lat="43.808994204107115" lon="7.684463105999917"><ele>405.0</ele><time>2026-04-02T14:32:05.997Z</time></trkpt><trkpt lat="43.80896094302304" lon="7.684377590745952"><ele>405.0</ele><time>2026-04-02T14:32:06.997Z</time></trkpt><trkpt lat="43.808914134944324" lon="7.684280638879272"><ele>405.0</ele><time>2026-04-02T14:32:08.997Z</time></trkpt><trkpt lat="43.80885543101461" lon="7.68420014844701"><ele>405.0</ele><time>2026-04-02T14:32:10.997Z</time></trkpt><trkpt lat="43.80876193413301" lon="7.684084937052843"><ele>400.0</ele><time>2026-04-02T14:32:12.997Z</time></trkpt><trkpt lat="43.80867532524355" lon="7.684044602164514"><ele>395.0</ele><time>2026-04-02T14:32:14.997Z</time></trkpt><trkpt lat="43.80860978846639" lon="7.683984930488228"><ele>390.0</ele><time>2026-04-02T14:32:16.997Z</time></trkpt><trkpt lat="43.808555197638356" lon="7.683887882465144"><ele>385.0</ele><time>2026-04-02T14:32:18.997Z</time></trkpt><trkpt lat="43.808566613708265" lon="7.683746731081905"><ele>380.0</ele><time>2026-04-02T14:32:20.997Z</time></trkpt><trkpt lat="43.80859397633021" lon="7.683598347512224"><ele>380.0</ele><time>2026-04-02T14:32:22.997Z</time></trkpt><trkpt lat="43.808522904753026" lon="7.683630888667572"><ele>380.0</ele><time>2026-04-02T14:40:28.996Z</time></trkpt><trkpt lat="43.80854640910351" lon="7.6837228446315855"><ele>380.0</ele><time>2026-04-02T14:41:08.995Z</time></trkpt><trkpt lat="43.808554111634066" lon="7.683838774229082"><ele>380.0</ele><time>2026-04-02T14:41:11.995Z</time></trkpt><trkpt lat="43.80859856264658" lon="7.6839144320287245"><ele>380.0</ele><time>2026-04-02T14:41:13.995Z</time></trkpt><trkpt lat="43.80866238588491" lon="7.683952940559696"><ele>380.0</ele><time>2026-04-02T14:41:15.995Z</time></trkpt><trkpt lat="43.80875638818798" lon="7.68398935761978"><ele>380.0</ele><time>2026-04-02T14:41:17.995Z</time></trkpt><trkpt lat="43.80883810379048" lon="7.684095565653252"><ele>380.0</ele><time>2026-04-02T14:41:19.995Z</time></trkpt><trkpt lat="43.808885156985504" lon="7.684213931878761"><ele>380.0</ele><time>2026-04-02T14:41:21.995Z</time></trkpt><trkpt lat="43.80891343373421" lon="7.684296171444786"><ele>380.0</ele><time>2026-04-02T14:41:23.995Z</time></trkpt><trkpt lat="43.808949246846524" lon="7.684380630550279"><ele>380.0</ele><time>2026-04-02T14:41:26.994Z</time></trkpt><trkpt lat="43.80898073769303" lon="7.684487505374233"><ele>380.0</ele><time>2026-04-02T14:41:34.994Z</time></trkpt><trkpt lat="43.80901761880682" lon="7.684591299663853"><ele>384.1666666666667</ele><time>2026-04-02T14:41:36.994Z</time></trkpt><trkpt lat="43.809068461395576" lon="7.6846539223890655"><ele>388.33333333333337</ele><time>2026-04-02T14:41:37.994Z</time></trkpt><trkpt lat="43.80911082815425" lon="7.684760487535252"><ele>392.5</ele><time>2026-04-02T14:41:39.994Z</time></trkpt><trkpt lat="43.80914236021719" lon="7.684856621530498"><ele>396.6666666666667</ele><time>2026-04-02T14:41:42.994Z</time></trkpt><trkpt lat="43.809218823444965" lon="7.684888654022665"><ele>400.8333333333333</ele><time>2026-04-02T14:41:44.994Z</time></trkpt><trkpt lat="43.80927292993953" lon="7.684967523179793"><ele>405.0</ele><time>2026-04-02T14:41:46.996Z</time></trkpt><trkpt lat="43.80926036366346" lon="7.685101681754524"><ele>405.0</ele><time>2026-04-02T14:41:48.997Z</time></trkpt><trkpt lat="43.809306288433795" lon="7.685199738241698"><ele>405.0</ele><time>2026-04-02T14:41:51.997Z</time></trkpt><trkpt lat="43.80937700676672" lon="7.685182605472568"><ele>405.0</ele><time>2026-04-02T14:41:53.996Z</time></trkpt><trkpt lat="43.80949034095569" lon="7.685199608783695"><ele>405.0</ele><time>2026-04-02T14:41:55.996Z</time></trkpt><trkpt lat="43.8095575272204" lon="7.68522909316501"><ele>405.0</ele><time>2026-04-02T14:41:56.996Z</time></trkpt><trkpt lat="43.80965610546063" lon="7.6853000094671104"><ele>407.0</ele><time>2026-04-02T14:41:58.997Z</time></trkpt><trkpt lat="43.80973367749292" lon="7.685358139085246"><ele>409.0</ele><time>2026-04-02T14:42:00.997Z</time></trkpt><trkpt lat="43.809861243782876" lon="7.685342532049069"><ele>411.0</ele><time>2026-04-02T14:42:02.997Z</time></trkpt><trkpt lat="43.80992910679235" lon="7.685353189205122"><ele>413.0</ele><time>2026-04-02T14:42:03.997Z</time></trkpt><trkpt lat="43.80999692047345" lon="7.685365682715146"><ele>415.0</ele><time>2026-04-02T14:42:04.996Z</time></trkpt><trkpt lat="43.81012032828254" lon="7.685377939767315"><ele>415.8</ele><time>2026-04-02T14:42:06.996Z</time></trkpt><trkpt lat="43.810186226808476" lon="7.685372222404563"><ele>416.6</ele><time>2026-04-02T14:42:07.996Z</time></trkpt><trkpt lat="43.810285893778186" lon="7.685364335659359"><ele>417.4</ele><time>2026-04-02T14:42:09.996Z</time></trkpt><trkpt lat="43.810345192598675" lon="7.68531777920108"><ele>418.2</ele><time>2026-04-02T14:42:11.996Z</time></trkpt><trkpt lat="43.8104367538132" lon="7.685214937018891"><ele>419.0</ele><time>2026-04-02T14:42:13.996Z</time></trkpt><trkpt lat="43.81052148650762" lon="7.685102055796709"><ele>414.3333333333333</ele><time>2026-04-02T14:42:15.996Z</time></trkpt><trkpt lat="43.81061229563804" lon="7.68498688770876"><ele>409.66666666666663</ele><time>2026-04-02T14:42:17.996Z</time></trkpt><trkpt lat="43.810664181072774" lon="7.684933345833507"><ele>405.0</ele><time>2026-04-02T14:42:18.996Z</time></trkpt><trkpt lat="43.81071927181149" lon="7.684868940671784"><ele>400.33333333333337</ele><time>2026-04-02T14:42:19.996Z</time></trkpt><trkpt lat="43.81077208292215" lon="7.684804439651217"><ele>395.6666666666667</ele><time>2026-04-02T14:42:20.996Z</time></trkpt><trkpt lat="43.81083443845981" lon="7.684752357445631"><ele>391.0</ele><time>2026-04-02T14:42:21.996Z</time></trkpt><trkpt lat="43.81092927557396" lon="7.684720832810034"><ele>391.0</ele><time>2026-04-02T14:42:23.996Z</time></trkpt><trkpt lat="43.810972743830845" lon="7.684818461745556"><ele>391.0</ele><time>2026-04-02T14:42:26.996Z</time></trkpt><trkpt lat="43.810961005884906" lon="7.684938418709709"><ele>391.0</ele><time>2026-04-02T14:42:28.996Z</time></trkpt><trkpt lat="43.81095277324152" lon="7.685074467895419"><ele>391.0</ele><time>2026-04-02T14:42:30.996Z</time></trkpt><trkpt lat="43.810985861211186" lon="7.685187980724644"><ele>391.0</ele><time>2026-04-02T14:42:32.996Z</time></trkpt><trkpt lat="43.81102398990734" lon="7.685316627207227"><ele>390.0</ele><time>2026-04-02T14:42:34.996Z</time></trkpt><trkpt lat="43.811113614843805" lon="7.685401545634951"><ele>389.0</ele><time>2026-04-02T14:42:36.996Z</time></trkpt><trkpt lat="43.81116845099085" lon="7.6854698877382415"><ele>388.0</ele><time>2026-04-02T14:42:38.996Z</time></trkpt><trkpt lat="43.81121347476578" lon="7.6856080843158985"><ele>387.0</ele><time>2026-04-02T14:42:40.996Z</time></trkpt><trkpt lat="43.81125124049661" lon="7.685738229029008"><ele>386.0</ele><time>2026-04-02T14:42:42.996Z</time></trkpt><trkpt lat="43.811290761836545" lon="7.685819083728731"><ele>385.99999999999994</ele><time>2026-04-02T14:42:43.996Z</time></trkpt><trkpt lat="43.81133279986567" lon="7.685890685596188"><ele>386.0</ele><time>2026-04-02T14:42:44.996Z</time></trkpt><trkpt lat="43.81137939612693" lon="7.686017475579563"><ele>386.0</ele><time>2026-04-02T14:42:46.996Z</time></trkpt><trkpt lat="43.81142288539813" lon="7.68615186114452"><ele>386.0</ele><time>2026-04-02T14:42:48.996Z</time></trkpt><trkpt lat="43.81145599926244" lon="7.686231445456726"><ele>385.99999999999994</ele><time>2026-04-02T14:42:49.996Z</time></trkpt><trkpt lat="43.8114892971126" lon="7.686310927764761"><ele>386.0</ele><time>2026-04-02T14:42:50.996Z</time></trkpt><trkpt lat="43.8115255903443" lon="7.686384495970856"><ele>389.66666666666663</ele><time>2026-04-02T14:42:51.996Z</time></trkpt><trkpt lat="43.81159840242956" lon="7.68649071991717"><ele>393.3333333333333</ele><time>2026-04-02T14:42:53.996Z</time></trkpt><trkpt lat="43.81163180213401" lon="7.686567318099596"><ele>397.0</ele><time>2026-04-02T14:42:55.996Z</time></trkpt><trkpt lat="43.81166278836537" lon="7.686646803733708"><ele>400.66666666666663</ele><time>2026-04-02T14:42:57.995Z</time></trkpt><trkpt lat="43.81175189118278" lon="7.686718151119803"><ele>404.3333333333333</ele><time>2026-04-02T14:42:59.995Z</time></trkpt><trkpt lat="43.81180216991701" lon="7.686788852496086"><ele>408.0</ele><time>2026-04-02T14:43:01.995Z</time></trkpt><trkpt lat="43.81187112773716" lon="7.686830876258566"><ele>408.0</ele><time>2026-04-02T14:43:03.995Z</time></trkpt><trkpt lat="43.81194993115692" lon="7.68677791068069"><ele>408.0</ele><time>2026-04-02T14:43:06.995Z</time></trkpt><trkpt lat="43.81204193783956" lon="7.686692648747786"><ele>408.0</ele><time>2026-04-02T14:43:08.995Z</time></trkpt><trkpt lat="43.81213783800304" lon="7.6865982519705085"><ele>408.0</ele><time>2026-04-02T14:43:10.995Z</time></trkpt><trkpt lat="43.812191634274306" lon="7.686545219455251"><ele>408.0</ele><time>2026-04-02T14:43:11.995Z</time></trkpt><trkpt lat="43.812259364670105" lon="7.686470287769287"><ele>408.0</ele><time>2026-04-02T14:43:13.995Z</time></trkpt><trkpt lat="43.81231325430579" lon="7.686400747176519"><ele>408.0</ele><time>2026-04-02T14:43:15.995Z</time></trkpt><trkpt lat="43.8123790616424" lon="7.686345653487176"><ele>408.0</ele><time>2026-04-02T14:43:17.995Z</time></trkpt><trkpt lat="43.81248878034336" lon="7.6863176073991974"><ele>408.0</ele><time>2026-04-02T14:43:19.995Z</time></trkpt><trkpt lat="43.81258592565462" lon="7.686289544381485"><ele>408.0</ele><time>2026-04-02T14:43:21.995Z</time></trkpt><trkpt lat="43.812648802831326" lon="7.686192606046084"><ele>405.1666666666667</ele><time>2026-04-02T14:43:23.995Z</time></trkpt><trkpt lat="43.812701336381" lon="7.6861092270987"><ele>402.33333333333337</ele><time>2026-04-02T14:43:25.995Z</time></trkpt><trkpt lat="43.81277104372863" lon="7.686013179733597"><ele>399.5</ele><time>2026-04-02T14:43:27.995Z</time></trkpt><trkpt lat="43.812813011924426" lon="7.6859044372850835"><ele>396.6666666666667</ele><time>2026-04-02T14:43:29.995Z</time></trkpt><trkpt lat="43.81286355912378" lon="7.685837724311228"><ele>393.83333333333337</ele><time>2026-04-02T14:43:36.995Z</time></trkpt><trkpt lat="43.81294772176203" lon="7.685813900194648"><ele>391.0</ele><time>2026-04-02T14:43:39.995Z</time></trkpt><trkpt lat="43.81300911286056" lon="7.685873474755801"><ele>388.50000000000006</ele><time>2026-04-02T14:43:42.995Z</time></trkpt><trkpt lat="43.813082712215994" lon="7.685900131828128"><ele>386.0</ele><time>2026-04-02T14:43:46.995Z</time></trkpt><trkpt lat="43.81303565778513" lon="7.6857779671546735"><ele>383.5</ele><time>2026-04-02T14:44:22.996Z</time></trkpt><trkpt lat="43.81296936020838" lon="7.685722730786887"><ele>381.0</ele><time>2026-04-02T14:44:24.995Z</time></trkpt><trkpt lat="43.812891824228615" lon="7.6856915444489875"><ele>378.5</ele><time>2026-04-02T14:44:26.995Z</time></trkpt><trkpt lat="43.812818623899254" lon="7.685669629257876"><ele>376.0</ele><time>2026-04-02T14:44:30.995Z</time></trkpt><trkpt lat="43.81275602100329" lon="7.685685921846749"><ele>376.0</ele><time>2026-04-02T14:44:48.995Z</time></trkpt><trkpt lat="43.812683014411895" lon="7.685721384545142"><ele>376.0</ele><time>2026-04-02T14:44:50.995Z</time></trkpt><trkpt lat="43.812626219257155" lon="7.685794189593553"><ele>376.0</ele><time>2026-04-02T14:44:53.995Z</time></trkpt><trkpt lat="43.81256790524811" lon="7.68586904100801"><ele>376.0</ele><time>2026-04-02T14:44:56.995Z</time></trkpt><trkpt lat="43.81248790717841" lon="7.685904059214325"><ele>376.0</ele><time>2026-04-02T14:44:59.995Z</time></trkpt><trkpt lat="43.81242568025806" lon="7.685918467392384"><ele>376.0</ele><time>2026-04-02T14:45:01.995Z</time></trkpt><trkpt lat="43.81235226676887" lon="7.685937289538224"><ele>376.0</ele><time>2026-04-02T14:45:03.995Z</time></trkpt><trkpt lat="43.812274975498894" lon="7.685936221718663"><ele>376.0</ele><time>2026-04-02T14:45:07.995Z</time></trkpt><trkpt lat="43.81220061659495" lon="7.6859615023383165"><ele>376.0</ele><time>2026-04-02T14:45:11.995Z</time></trkpt><trkpt lat="43.812159421402114" lon="7.686032826849229"><ele>376.0</ele><time>2026-04-02T14:45:14.995Z</time></trkpt><trkpt lat="43.81209854791969" lon="7.686072922039489"><ele>376.0</ele><time>2026-04-02T14:45:17.994Z</time></trkpt><trkpt lat="43.81203424680766" lon="7.686054493741603"><ele>376.0</ele><time>2026-04-02T14:45:20.994Z</time></trkpt><trkpt lat="43.81200364715148" lon="7.685936893858974"><ele>376.0</ele><time>2026-04-02T14:45:23.994Z</time></trkpt><trkpt lat="43.81197080871792" lon="7.685810083682899"><ele>376.0</ele><time>2026-04-02T14:45:26.994Z</time></trkpt><trkpt lat="43.811924767181296" lon="7.685748839371334"><ele>376.0</ele><time>2026-04-02T14:45:30.994Z</time></trkpt><trkpt lat="43.811860000773805" lon="7.685751278504651"><ele>376.0</ele><time>2026-04-02T14:45:42.994Z</time></trkpt><trkpt lat="43.81180662012765" lon="7.685638201271916"><ele>376.0</ele><time>2026-04-02T14:45:47.994Z</time></trkpt><trkpt lat="43.811780025841315" lon="7.685558164845091"><ele>376.0</ele><time>2026-04-02T14:45:50.994Z</time></trkpt><trkpt lat="43.81171539628879" lon="7.6855130650845185"><ele>376.0</ele><time>2026-04-02T14:47:32.995Z</time></trkpt><trkpt lat="43.81167716572229" lon="7.685422111913566"><ele>376.0</ele><time>2026-04-02T14:47:40.994Z</time></trkpt><trkpt lat="43.811672018215184" lon="7.68533456144016"><ele>374.1428571428571</ele><time>2026-04-02T14:47:47.994Z</time></trkpt><trkpt lat="43.81167133395445" lon="7.685243891920091"><ele>372.2857142857143</ele><time>2026-04-02T14:47:53.994Z</time></trkpt><trkpt lat="43.811679769320676" lon="7.68512887824271"><ele>370.42857142857144</ele><time>2026-04-02T14:47:57.994Z</time></trkpt><trkpt lat="43.81167662868914" lon="7.685034583475979"><ele>368.57142857142856</ele><time>2026-04-02T14:47:59.994Z</time></trkpt><trkpt lat="43.81165675827393" lon="7.684945251314296"><ele>366.7142857142857</ele><time>2026-04-02T14:48:01.994Z</time></trkpt><trkpt lat="43.81163160739413" lon="7.6848550066083625"><ele>364.85714285714283</ele><time>2026-04-02T14:48:04.996Z</time></trkpt><trkpt lat="43.811587729242724" lon="7.684784252538706"><ele>363.0</ele><time>2026-04-02T14:48:06.996Z</time></trkpt><trkpt lat="43.811565074213426" lon="7.684660812666224"><ele>362.99999999999994</ele><time>2026-04-02T14:48:09.996Z</time></trkpt><trkpt lat="43.811561798042156" lon="7.684568384699061"><ele>363.0</ele><time>2026-04-02T14:48:11.996Z</time></trkpt><trkpt lat="43.81154917356392" lon="7.684454683088177"><ele>363.0</ele><time>2026-04-02T14:48:14.996Z</time></trkpt><trkpt lat="43.8115531870837" lon="7.684361624633144"><ele>363.0</ele><time>2026-04-02T14:48:17.996Z</time></trkpt><trkpt lat="43.81158350442355" lon="7.6842670535889015"><ele>363.0</ele><time>2026-04-02T14:48:20.996Z</time></trkpt><trkpt lat="43.811626909853885" lon="7.684344624555647"><ele>362.99999999999994</ele><time>2026-04-02T14:48:24.996Z</time></trkpt><trkpt lat="43.81164523740034" lon="7.684452441153729"><ele>363.0</ele><time>2026-04-02T14:48:27.996Z</time></trkpt><trkpt lat="43.8116882001407" lon="7.684539283611588"><ele>362.99999999999994</ele><time>2026-04-02T14:48:31.996Z</time></trkpt><trkpt lat="43.8117389558229" lon="7.684456980623135"><ele>363.0</ele><time>2026-04-02T14:48:38.996Z</time></trkpt><trkpt lat="43.811731727116104" lon="7.684369281650142"><ele>363.0</ele><time>2026-04-02T14:48:40.996Z</time></trkpt><trkpt lat="43.81173025311196" lon="7.684268766666908"><ele>363.0</ele><time>2026-04-02T14:48:44.995Z</time></trkpt><trkpt lat="43.81174304047222" lon="7.684151749912982"><ele>363.0</ele><time>2026-04-02T14:48:54.995Z</time></trkpt><trkpt lat="43.81178357559976" lon="7.684068051814477"><ele>362.99999999999994</ele><time>2026-04-02T14:48:58.995Z</time></trkpt><trkpt lat="43.81181168875141" lon="7.683976143516001"><ele>363.0</ele><time>2026-04-02T14:49:01.995Z</time></trkpt><trkpt lat="43.81182831296594" lon="7.683887052138995"><ele>356.85714285714283</ele><time>2026-04-02T14:49:07.995Z</time></trkpt><trkpt lat="43.811844171270856" lon="7.683795565329478"><ele>350.7142857142857</ele><time>2026-04-02T14:49:10.995Z</time></trkpt><trkpt lat="43.811855108459476" lon="7.683708535664225"><ele>344.57142857142856</ele><time>2026-04-02T14:49:13.995Z</time></trkpt><trkpt lat="43.811863411961426" lon="7.683589732693424"><ele>338.42857142857144</ele><time>2026-04-02T14:49:16.995Z</time></trkpt><trkpt lat="43.81189551058685" lon="7.683490571056596"><ele>332.2857142857143</ele><time>2026-04-02T14:49:18.995Z</time></trkpt><trkpt lat="43.81190219173773" lon="7.683395117055819"><ele>326.1428571428571</ele><time>2026-04-02T14:49:21.995Z</time></trkpt><trkpt lat="43.811901692250984" lon="7.683292629648311"><ele>320.0</ele><time>2026-04-02T14:49:24.995Z</time></trkpt><trkpt lat="43.81188483056217" lon="7.683191793163968"><ele>318.33333333333337</ele><time>2026-04-02T14:49:28.995Z</time></trkpt><trkpt lat="43.811893014762504" lon="7.683081076946727"><ele>316.6666666666667</ele><time>2026-04-02T14:49:32.995Z</time></trkpt><trkpt lat="43.81186993008258" lon="7.682974513373788"><ele>315.0</ele><time>2026-04-02T14:49:35.995Z</time></trkpt><trkpt lat="43.8118499321523" lon="7.682874220149364"><ele>313.3333333333333</ele><time>2026-04-02T14:49:38.994Z</time></trkpt><trkpt lat="43.811816235401714" lon="7.682786864410787"><ele>311.66666666666663</ele><time>2026-04-02T14:49:40.994Z</time></trkpt><trkpt lat="43.81177645133017" lon="7.682717565003053"><ele>310.0</ele><time>2026-04-02T14:49:42.994Z</time></trkpt><trkpt lat="43.811717120697494" lon="7.6826271965546775"><ele>310.0</ele><time>2026-04-02T14:49:46.994Z</time></trkpt><trkpt lat="43.81166350362465" lon="7.682568219085796"><ele>310.0</ele><time>2026-04-02T14:49:49.994Z</time></trkpt><trkpt lat="43.8116494720205" lon="7.682478930930745"><ele>310.0</ele><time>2026-04-02T14:50:53.995Z</time></trkpt><trkpt lat="43.81161856093257" lon="7.682386099762259"><ele>310.0</ele><time>2026-04-02T14:50:56.995Z</time></trkpt><trkpt lat="43.811545822983824" lon="7.682275978932257"><ele>310.0</ele><time>2026-04-02T14:50:58.995Z</time></trkpt><trkpt lat="43.811504417079966" lon="7.682209004173893"><ele>310.0</ele><time>2026-04-02T14:51:00.995Z</time></trkpt><trkpt lat="43.81143395210843" lon="7.682116926953036"><ele>310.0</ele><time>2026-04-02T14:51:10.995Z</time></trkpt><trkpt lat="43.81133238187645" lon="7.682025316354715"><ele>310.0</ele><time>2026-04-02T14:51:12.995Z</time></trkpt><trkpt lat="43.81124475022455" lon="7.682001552494527"><ele>310.0</ele><time>2026-04-02T14:51:14.995Z</time></trkpt><trkpt lat="43.81116151258743" lon="7.681947573047335"><ele>310.0</ele><time>2026-04-02T14:51:17.995Z</time></trkpt><trkpt lat="43.81107449589185" lon="7.681880616495127"><ele>310.0</ele><time>2026-04-02T14:51:19.995Z</time></trkpt><trkpt lat="43.81099146287181" lon="7.681841484609522"><ele>310.0</ele><time>2026-04-02T14:51:21.995Z</time></trkpt><trkpt lat="43.81092360857423" lon="7.681896093079483"><ele>310.0</ele><time>2026-04-02T14:51:23.994Z</time></trkpt><trkpt lat="43.81084654392323" lon="7.681961717437753"><ele>310.0</ele><time>2026-04-02T14:51:25.994Z</time></trkpt><trkpt lat="43.810801861813815" lon="7.682041310428946"><ele>310.0</ele><time>2026-04-02T14:51:27.994Z</time></trkpt><trkpt lat="43.81073356311646" lon="7.6821434960450645"><ele>310.0</ele><time>2026-04-02T14:51:29.994Z</time></trkpt><trkpt lat="43.81066343700421" lon="7.682274948436938"><ele>310.0</ele><time>2026-04-02T14:51:31.994Z</time></trkpt><trkpt lat="43.81059676743237" lon="7.6823844277746005"><ele>310.0</ele><time>2026-04-02T14:51:33.994Z</time></trkpt><trkpt lat="43.81052389800229" lon="7.682487597096313"><ele>310.0</ele><time>2026-04-02T14:51:35.994Z</time></trkpt><trkpt lat="43.8104534248597" lon="7.6825676708258515"><ele>310.0</ele><time>2026-04-02T14:51:37.994Z</time></trkpt><trkpt lat="43.810369417311115" lon="7.682649538342603"><ele>310.0</ele><time>2026-04-02T14:51:39.994Z</time></trkpt><trkpt lat="43.8103087631177" lon="7.6827320812944695"><ele>312.66666666666663</ele><time>2026-04-02T14:51:41.994Z</time></trkpt><trkpt lat="43.810241515939104" lon="7.682850657425601"><ele>315.3333333333333</ele><time>2026-04-02T14:51:43.994Z</time></trkpt><trkpt lat="43.81021266644835" lon="7.682934015243505"><ele>318.0</ele><time>2026-04-02T14:51:44.994Z</time></trkpt><trkpt lat="43.81018479759247" lon="7.683012288884917"><ele>320.6666666666667</ele><time>2026-04-02T14:51:45.994Z</time></trkpt><trkpt lat="43.81016390385935" lon="7.683140930673404"><ele>323.33333333333337</ele><time>2026-04-02T14:51:47.994Z</time></trkpt><trkpt lat="43.81011889971279" lon="7.683236900856666"><ele>326.0</ele><time>2026-04-02T14:51:49.994Z</time></trkpt><trkpt lat="43.810015607789005" lon="7.6832238937811175"><ele>326.0</ele><time>2026-04-02T14:51:51.994Z</time></trkpt><trkpt lat="43.80997216001649" lon="7.683158551515482"><ele>326.0</ele><time>2026-04-02T14:51:53.994Z</time></trkpt><trkpt lat="43.80997872179049" lon="7.683049845670675"><ele>326.0</ele><time>2026-04-02T14:51:55.994Z</time></trkpt><trkpt lat="43.80994290733406" lon="7.682908324058539"><ele>326.0</ele><time>2026-04-02T14:51:57.994Z</time></trkpt><trkpt lat="43.809881774080125" lon="7.68280759377043"><ele>326.0</ele><time>2026-04-02T14:51:59.994Z</time></trkpt><trkpt lat="43.80986310804548" lon="7.682671609151667"><ele>326.0</ele><time>2026-04-02T14:52:01.994Z</time></trkpt><trkpt lat="43.80988649323766" lon="7.682486528126617"><ele>322.2</ele><time>2026-04-02T14:52:03.994Z</time></trkpt><trkpt lat="43.80990852505852" lon="7.682391949986887"><ele>318.40000000000003</ele><time>2026-04-02T14:52:04.994Z</time></trkpt><trkpt lat="43.809932849357445" lon="7.682200980068557"><ele>314.6</ele><time>2026-04-02T14:52:06.994Z</time></trkpt><trkpt lat="43.809905055167235" lon="7.682086397429036"><ele>310.8</ele><time>2026-04-02T14:52:07.994Z</time></trkpt><trkpt lat="43.80987808988548" lon="7.681977093863659"><ele>307.0</ele><time>2026-04-02T14:52:08.994Z</time></trkpt><trkpt lat="43.809833346445444" lon="7.681801628651623"><ele>303.66666666666663</ele><time>2026-04-02T14:52:10.994Z</time></trkpt><trkpt lat="43.80983805825349" lon="7.681630009748838"><ele>300.3333333333333</ele><time>2026-04-02T14:52:12.994Z</time></trkpt><trkpt lat="43.80984185493717" lon="7.681528027263698"><ele>297.0</ele><time>2026-04-02T14:52:13.994Z</time></trkpt><trkpt lat="43.80985409904931" lon="7.681420310822246"><ele>293.6666666666667</ele><time>2026-04-02T14:52:14.995Z</time></trkpt><trkpt lat="43.80986844267854" lon="7.681317491005905"><ele>290.33333333333337</ele><time>2026-04-02T14:52:15.996Z</time></trkpt><trkpt lat="43.80988580083856" lon="7.681213684726331"><ele>287.0</ele><time>2026-04-02T14:52:16.996Z</time></trkpt><trkpt lat="43.809895587675825" lon="7.681104493134281"><ele>283.6666666666667</ele><time>2026-04-02T14:52:17.995Z</time></trkpt><trkpt lat="43.809915065711785" lon="7.680992485429521"><ele>280.33333333333337</ele><time>2026-04-02T14:52:18.996Z</time></trkpt><trkpt lat="43.80993844910085" lon="7.680897298827534"><ele>277.0</ele><time>2026-04-02T14:52:19.996Z</time></trkpt><trkpt lat="43.80991950463095" lon="7.680716452389367"><ele>273.6666666666667</ele><time>2026-04-02T14:52:21.996Z</time></trkpt><trkpt lat="43.80988256363219" lon="7.680640689733235"><ele>270.3333333333333</ele><time>2026-04-02T14:52:22.996Z</time></trkpt><trkpt lat="43.80981410945791" lon="7.68057876398041"><ele>267.0</ele><time>2026-04-02T14:52:23.995Z</time></trkpt><trkpt lat="43.809740013802184" lon="7.680526456125908"><ele>267.0</ele><time>2026-04-02T14:52:24.995Z</time></trkpt><trkpt lat="43.8096774969253" lon="7.680499297639277"><ele>267.0</ele><time>2026-04-02T14:52:25.995Z</time></trkpt><trkpt lat="43.809557663765446" lon="7.680456398921108"><ele>267.0</ele><time>2026-04-02T14:52:27.995Z</time></trkpt><trkpt lat="43.8094850989711" lon="7.680456932104378"><ele>267.0</ele><time>2026-04-02T14:52:28.995Z</time></trkpt><trkpt lat="43.80940281394079" lon="7.680458743994327"><ele>267.0</ele><time>2026-04-02T14:52:29.995Z</time></trkpt><trkpt lat="43.809332297439155" lon="7.6804481311077115"><ele>267.0</ele><time>2026-04-02T14:52:30.995Z</time></trkpt><trkpt lat="43.80924016712947" lon="7.680347446683147"><ele>264.6</ele><time>2026-04-02T14:52:32.995Z</time></trkpt><trkpt lat="43.809199486095196" lon="7.680201680092639"><ele>262.2</ele><time>2026-04-02T14:52:34.995Z</time></trkpt><trkpt lat="43.80910734309141" lon="7.680088935728959"><ele>259.8</ele><time>2026-04-02T14:52:36.995Z</time></trkpt><trkpt lat="43.809032351314094" lon="7.680040620854205"><ele>257.4</ele><time>2026-04-02T14:52:37.995Z</time></trkpt><trkpt lat="43.808967096227214" lon="7.680004074839793"><ele>255.0</ele><time>2026-04-02T14:52:39.995Z</time></trkpt><trkpt lat="43.808916815746386" lon="7.679942177536949"><ele>255.0</ele><time>2026-04-02T14:53:15.994Z</time></trkpt><trkpt lat="43.80883453106792" lon="7.679838484972343"><ele>255.0</ele><time>2026-04-02T14:53:17.994Z</time></trkpt><trkpt lat="43.808760837574624" lon="7.679686854096389"><ele>255.0</ele><time>2026-04-02T14:53:19.994Z</time></trkpt><trkpt lat="43.808685897536854" lon="7.6795289186548725"><ele>255.0</ele><time>2026-04-02T14:53:21.994Z</time></trkpt><trkpt lat="43.808637270481135" lon="7.6794667105882475"><ele>255.0</ele><time>2026-04-02T14:53:22.994Z</time></trkpt><trkpt lat="43.80857727371314" lon="7.679428355898072"><ele>252.71428571428572</ele><time>2026-04-02T14:53:23.994Z</time></trkpt><trkpt lat="43.8085025884401" lon="7.679403979465678"><ele>250.42857142857144</ele><time>2026-04-02T14:53:24.994Z</time></trkpt><trkpt lat="43.80843038989451" lon="7.679374647263539"><ele>248.14285714285717</ele><time>2026-04-02T14:53:25.994Z</time></trkpt><trkpt lat="43.80837293118562" lon="7.679335109089904"><ele>245.8571428571429</ele><time>2026-04-02T14:53:26.994Z</time></trkpt><trkpt lat="43.808308010335864" lon="7.679252233216038"><ele>243.57142857142858</ele><time>2026-04-02T14:53:28.994Z</time></trkpt><trkpt lat="43.80827610122178" lon="7.679168923788744"><ele>241.28571428571433</ele><time>2026-04-02T14:53:49.994Z</time></trkpt><trkpt lat="43.808335938650835" lon="7.679122008816834"><ele>239.00000000000003</ele><time>2026-04-02T14:53:52.994Z</time></trkpt><trkpt lat="43.808395879879036" lon="7.679179588128268"><ele>239.00000000000003</ele><time>2026-04-02T14:53:54.994Z</time></trkpt><trkpt lat="43.80847284919312" lon="7.679237517966694"><ele>239.0</ele><time>2026-04-02T14:53:56.994Z</time></trkpt><trkpt lat="43.80859277125524" lon="7.679254624655085"><ele>239.0</ele><time>2026-04-02T14:53:58.994Z</time></trkpt><trkpt lat="43.808674678179706" lon="7.67926032882959"><ele>239.0</ele><time>2026-04-02T14:53:59.994Z</time></trkpt><trkpt lat="43.80874769170282" lon="7.679295874353727"><ele>239.00000000000003</ele><time>2026-04-02T14:54:00.994Z</time></trkpt><trkpt lat="43.8088160399349" lon="7.679335707212152"><ele>239.0</ele><time>2026-04-02T14:54:01.993Z</time></trkpt><trkpt lat="43.808885519111904" lon="7.679361333095934"><ele>236.33333333333334</ele><time>2026-04-02T14:54:02.993Z</time></trkpt><trkpt lat="43.80895201055485" lon="7.679378701141023"><ele>233.66666666666669</ele><time>2026-04-02T14:54:03.993Z</time></trkpt><trkpt lat="43.809016473927926" lon="7.679381545356469"><ele>231.0</ele><time>2026-04-02T14:54:04.993Z</time></trkpt><trkpt lat="43.80908080722222" lon="7.67938655721546"><ele>228.33333333333331</ele><time>2026-04-02T14:54:05.993Z</time></trkpt><trkpt lat="43.80916239160693" lon="7.679396392815091"><ele>225.66666666666666</ele><time>2026-04-02T14:54:07.993Z</time></trkpt><trkpt lat="43.809191743236646" lon="7.679314361406311"><ele>223.0</ele><time>2026-04-02T14:54:09.993Z</time></trkpt><trkpt lat="43.80912313571261" lon="7.679177483501166"><ele>223.0</ele><time>2026-04-02T14:54:11.993Z</time></trkpt><trkpt lat="43.80906989113923" lon="7.6791179419696975"><ele>223.0</ele><time>2026-04-02T14:54:12.993Z</time></trkpt><trkpt lat="43.80899659176371" lon="7.679006648603307"><ele>223.0</ele><time>2026-04-02T14:54:14.993Z</time></trkpt><trkpt lat="43.808911185150045" lon="7.6788898998846955"><ele>223.0</ele><time>2026-04-02T14:54:16.993Z</time></trkpt><trkpt lat="43.808858765484544" lon="7.678824801399883"><ele>223.0</ele><time>2026-04-02T14:54:17.993Z</time></trkpt><trkpt lat="43.80880249765288" lon="7.678741727892201"><ele>222.99999999999997</ele><time>2026-04-02T14:54:18.993Z</time></trkpt><trkpt lat="43.80875544434777" lon="7.678670012840117"><ele>223.0</ele><time>2026-04-02T14:54:19.993Z</time></trkpt><trkpt lat="43.80871831871095" lon="7.678575798342323"><ele>223.0</ele><time>2026-04-02T14:54:20.996Z</time></trkpt><trkpt lat="43.808651138338256" lon="7.678426422400984"><ele>223.0</ele><time>2026-04-02T14:54:22.995Z</time></trkpt><trkpt lat="43.808619485216894" lon="7.678316955469765"><ele>222.99999999999997</ele><time>2026-04-02T14:54:23.995Z</time></trkpt><trkpt lat="43.80859506518714" lon="7.678224337371625"><ele>223.0</ele><time>2026-04-02T14:54:24.995Z</time></trkpt><trkpt lat="43.80854987203" lon="7.678102344257071"><ele>218.0</ele><time>2026-04-02T14:54:26.995Z</time></trkpt><trkpt lat="43.80864064476698" lon="7.678050157187685"><ele>213.0</ele><time>2026-04-02T14:54:29.995Z</time></trkpt><trkpt lat="43.80876173794556" lon="7.678120814519622"><ele>208.0</ele><time>2026-04-02T14:54:31.995Z</time></trkpt><trkpt lat="43.80884011168431" lon="7.678147563182642"><ele>203.0</ele><time>2026-04-02T14:54:32.996Z</time></trkpt><trkpt lat="43.80892156315797" lon="7.67816181154082"><ele>198.0</ele><time>2026-04-02T14:54:33.995Z</time></trkpt><trkpt lat="43.808992987514046" lon="7.678179218695568"><ele>198.0</ele><time>2026-04-02T14:54:34.995Z</time></trkpt><trkpt lat="43.80906369880599" lon="7.678205074054823"><ele>198.0</ele><time>2026-04-02T14:54:35.995Z</time></trkpt><trkpt lat="43.80912757240221" lon="7.678219771732242"><ele>198.0</ele><time>2026-04-02T14:54:36.995Z</time></trkpt><trkpt lat="43.80919534058566" lon="7.678246461689352"><ele>198.0</ele><time>2026-04-02T14:54:37.995Z</time></trkpt><trkpt lat="43.809264425431614" lon="7.678251155392245"><ele>198.0</ele><time>2026-04-02T14:54:38.995Z</time></trkpt><trkpt lat="43.809342718644174" lon="7.67823836056576"><ele>198.0</ele><time>2026-04-02T14:54:39.995Z</time></trkpt><trkpt lat="43.809407020908644" lon="7.6782294622087806"><ele>198.0</ele><time>2026-04-02T14:54:40.994Z</time></trkpt><trkpt lat="43.80947953104151" lon="7.678219947227625"><ele>198.16666666666666</ele><time>2026-04-02T14:54:41.994Z</time></trkpt><trkpt lat="43.80958155848335" lon="7.678192154265225"><ele>198.33333333333331</ele><time>2026-04-02T14:54:43.994Z</time></trkpt><trkpt lat="43.80961487609202" lon="7.6780932553053765"><ele>198.5</ele><time>2026-04-02T14:54:45.994Z</time></trkpt><trkpt lat="43.80958054831725" lon="7.677977955335557"><ele>198.66666666666666</ele><time>2026-04-02T14:54:47.994Z</time></trkpt><trkpt lat="43.80953258434409" lon="7.677920563944855"><ele>198.83333333333331</ele><time>2026-04-02T14:54:48.994Z</time></trkpt><trkpt lat="43.809482748017686" lon="7.677845997857562"><ele>199.0</ele><time>2026-04-02T14:54:49.994Z</time></trkpt><trkpt lat="43.80940923350949" lon="7.67778901768795"><ele>198.2</ele><time>2026-04-02T14:54:50.994Z</time></trkpt><trkpt lat="43.80933499508774" lon="7.677726927683991"><ele>197.39999999999998</ele><time>2026-04-02T14:54:51.994Z</time></trkpt><trkpt lat="43.80926752363892" lon="7.677651291389938"><ele>196.6</ele><time>2026-04-02T14:54:52.994Z</time></trkpt><trkpt lat="43.809212355989374" lon="7.6775847929485765"><ele>195.8</ele><time>2026-04-02T14:54:53.994Z</time></trkpt><trkpt lat="43.80916468410789" lon="7.677502071892502"><ele>195.0</ele><time>2026-04-02T14:54:54.994Z</time></trkpt><trkpt lat="43.80908010480759" lon="7.677346485984248"><ele>195.0</ele><time>2026-04-02T14:54:56.994Z</time></trkpt><trkpt lat="43.809011154521514" lon="7.677196066325201"><ele>195.0</ele><time>2026-04-02T14:54:58.994Z</time></trkpt><trkpt lat="43.808954104255" lon="7.67713947082687"><ele>195.0</ele><time>2026-04-02T14:54:59.994Z</time></trkpt><trkpt lat="43.80888707012114" lon="7.677098784133557"><ele>195.0</ele><time>2026-04-02T14:55:00.994Z</time></trkpt><trkpt lat="43.808814169775594" lon="7.677072769792594"><ele>195.0</ele><time>2026-04-02T14:55:01.994Z</time></trkpt><trkpt lat="43.80873773165287" lon="7.677059684370558"><ele>195.0</ele><time>2026-04-02T14:55:02.994Z</time></trkpt><trkpt lat="43.808631328839525" lon="7.677013916294682"><ele>195.0</ele><time>2026-04-02T14:55:04.994Z</time></trkpt><trkpt lat="43.808576174599686" lon="7.676961714855126"><ele>195.0</ele><time>2026-04-02T14:55:05.994Z</time></trkpt><trkpt lat="43.80851294688315" lon="7.676903881366927"><ele>195.0</ele><time>2026-04-02T14:55:06.994Z</time></trkpt><trkpt lat="43.808451775476925" lon="7.676843840097832"><ele>195.0</ele><time>2026-04-02T14:55:07.994Z</time></trkpt><trkpt lat="43.80838314862913" lon="7.676784890249821"><ele>195.0</ele><time>2026-04-02T14:55:08.994Z</time></trkpt><trkpt lat="43.80831971957134" lon="7.676730796779113"><ele>195.0</ele><time>2026-04-02T14:55:09.994Z</time></trkpt><trkpt lat="43.80824818685278" lon="7.676612537040344"><ele>194.0</ele><time>2026-04-02T14:55:11.994Z</time></trkpt><trkpt lat="43.808195982624326" lon="7.676457178268855"><ele>193.0</ele><time>2026-04-02T14:55:13.994Z</time></trkpt><trkpt lat="43.808138552130536" lon="7.676380520580624"><ele>192.0</ele><time>2026-04-02T14:55:14.994Z</time></trkpt><trkpt lat="43.80806566269112" lon="7.676302831984053"><ele>191.0</ele><time>2026-04-02T14:55:15.994Z</time></trkpt><trkpt lat="43.807963561323504" lon="7.6762293710400975"><ele>190.0</ele><time>2026-04-02T14:55:16.994Z</time></trkpt><trkpt lat="43.80788483097292" lon="7.6761438116462175"><ele>189.5</ele><time>2026-04-02T14:55:17.994Z</time></trkpt><trkpt lat="43.8078258873843" lon="7.6760661594806825"><ele>189.0</ele><time>2026-04-02T14:55:18.994Z</time></trkpt><trkpt lat="43.807775109440364" lon="7.675972924424254"><ele>188.5</ele><time>2026-04-02T14:55:19.994Z</time></trkpt><trkpt lat="43.80772932138381" lon="7.675867912645051"><ele>188.0</ele><time>2026-04-02T14:55:20.994Z</time></trkpt><trkpt lat="43.80766880039111" lon="7.675782455229742"><ele>187.5</ele><time>2026-04-02T14:55:21.994Z</time></trkpt><trkpt lat="43.80760683522834" lon="7.675699021221176"><ele>187.0</ele><time>2026-04-02T14:55:22.994Z</time></trkpt><trkpt lat="43.807536283962044" lon="7.675640381971912"><ele>187.0</ele><time>2026-04-02T14:55:23.994Z</time></trkpt><trkpt lat="43.80747298917688" lon="7.675585337608657"><ele>187.0</ele><time>2026-04-02T14:55:24.994Z</time></trkpt><trkpt lat="43.80741453845214" lon="7.675529336394525"><ele>187.0</ele><time>2026-04-02T14:55:25.994Z</time></trkpt><trkpt lat="43.80736403284636" lon="7.675444046495212"><ele>187.0</ele><time>2026-04-02T14:55:26.994Z</time></trkpt><trkpt lat="43.80731902341987" lon="7.675361753222747"><ele>187.0</ele><time>2026-04-02T14:55:27.994Z</time></trkpt><trkpt lat="43.80726755321826" lon="7.675240124528029"><ele>187.0</ele><time>2026-04-02T14:55:29.994Z</time></trkpt><trkpt lat="43.8073252615141" lon="7.675137315037363"><ele>190.39999999999998</ele><time>2026-04-02T14:55:31.994Z</time></trkpt><trkpt lat="43.807391554460835" lon="7.675015540891113"><ele>193.79999999999998</ele><time>2026-04-02T14:55:33.993Z</time></trkpt><trkpt lat="43.8073607136982" lon="7.674914295162168"><ele>197.2</ele><time>2026-04-02T14:55:35.993Z</time></trkpt><trkpt lat="43.80726841405245" lon="7.674877814485188"><ele>200.6</ele><time>2026-04-02T14:55:36.993Z</time></trkpt><trkpt lat="43.80719020405234" lon="7.674846548658265"><ele>204.0</ele><time>2026-04-02T14:55:37.993Z</time></trkpt><trkpt lat="43.8071107026425" lon="7.674810825806105"><ele>204.0</ele><time>2026-04-02T14:55:38.993Z</time></trkpt><trkpt lat="43.80703929163949" lon="7.6747941291261"><ele>204.0</ele><time>2026-04-02T14:55:39.993Z</time></trkpt><trkpt lat="43.80697281767919" lon="7.6747674652552975"><ele>204.0</ele><time>2026-04-02T14:55:40.993Z</time></trkpt><trkpt lat="43.80686047243303" lon="7.674686540600443"><ele>204.0</ele><time>2026-04-02T14:55:42.993Z</time></trkpt><trkpt lat="43.80681253860276" lon="7.674617584835092"><ele>204.0</ele><time>2026-04-02T14:55:43.993Z</time></trkpt><trkpt lat="43.806832033827554" lon="7.6744754154927985"><ele>204.0</ele><time>2026-04-02T14:55:45.993Z</time></trkpt><trkpt lat="43.80685190190073" lon="7.674390308098915"><ele>204.0</ele><time>2026-04-02T14:55:46.993Z</time></trkpt><trkpt lat="43.80684875422071" lon="7.674270000266015"><ele>204.0</ele><time>2026-04-02T14:55:48.993Z</time></trkpt><trkpt lat="43.806795524217776" lon="7.674190984986006"><ele>204.0</ele><time>2026-04-02T14:55:49.993Z</time></trkpt><trkpt lat="43.80670205225696" lon="7.674118232402481"><ele>204.0</ele><time>2026-04-02T14:55:50.993Z</time></trkpt><trkpt lat="43.80663636944375" lon="7.674038334823234"><ele>204.0</ele><time>2026-04-02T14:55:51.993Z</time></trkpt><trkpt lat="43.80655949764957" lon="7.673956796246027"><ele>204.0</ele><time>2026-04-02T14:55:52.993Z</time></trkpt><trkpt lat="43.80647629255938" lon="7.673870881524276"><ele>204.0</ele><time>2026-04-02T14:55:53.993Z</time></trkpt><trkpt lat="43.80640389492944" lon="7.673804202363353"><ele>204.0</ele><time>2026-04-02T14:55:54.993Z</time></trkpt><trkpt lat="43.806331923735144" lon="7.673757066536737"><ele>204.0</ele><time>2026-04-02T14:55:55.993Z</time></trkpt><trkpt lat="43.80625636261407" lon="7.673737230790474"><ele>204.0</ele><time>2026-04-02T14:55:56.993Z</time></trkpt><trkpt lat="43.80619490096103" lon="7.673686614604418"><ele>204.0</ele><time>2026-04-02T14:55:57.993Z</time></trkpt><trkpt lat="43.8061501664881" lon="7.673623436372898"><ele>203.5</ele><time>2026-04-02T14:55:58.993Z</time></trkpt><trkpt lat="43.80610530341347" lon="7.67354069705696"><ele>203.0</ele><time>2026-04-02T14:55:59.993Z</time></trkpt><trkpt lat="43.806057457558374" lon="7.6734452289779345"><ele>202.5</ele><time>2026-04-02T14:56:00.993Z</time></trkpt><trkpt lat="43.80600550236609" lon="7.673350398022242"><ele>202.0</ele><time>2026-04-02T14:56:01.993Z</time></trkpt><trkpt lat="43.805948752015354" lon="7.673255659622646"><ele>201.5</ele><time>2026-04-02T14:56:02.993Z</time></trkpt><trkpt lat="43.80589541159561" lon="7.673177629726709"><ele>201.0</ele><time>2026-04-02T14:56:03.993Z</time></trkpt><trkpt lat="43.80584676838984" lon="7.673104782193895"><ele>201.0</ele><time>2026-04-02T14:56:04.993Z</time></trkpt><trkpt lat="43.80576595017503" lon="7.672985959258474"><ele>201.0</ele><time>2026-04-02T14:56:06.993Z</time></trkpt><trkpt lat="43.80570550713189" lon="7.672960378826854"><ele>201.0</ele><time>2026-04-02T14:56:08.993Z</time></trkpt><trkpt lat="43.80572820249954" lon="7.672832135187115"><ele>201.0</ele><time>2026-04-02T14:56:12.993Z</time></trkpt><trkpt lat="43.80573495668791" lon="7.67267457413443"><ele>201.0</ele><time>2026-04-02T14:56:14.993Z</time></trkpt><trkpt lat="43.805664366002866" lon="7.672584294435606"><ele>203.75</ele><time>2026-04-02T14:56:15.993Z</time></trkpt><trkpt lat="43.80557212646691" lon="7.672482401342294"><ele>206.5</ele><time>2026-04-02T14:56:16.993Z</time></trkpt><trkpt lat="43.80547309625449" lon="7.672362478447056"><ele>209.25</ele><time>2026-04-02T14:56:17.993Z</time></trkpt><trkpt lat="43.80536110247129" lon="7.67221994916707"><ele>212.0</ele><time>2026-04-02T14:56:18.993Z</time></trkpt><trkpt lat="43.80525862676601" lon="7.672075013626835"><ele>209.33333333333334</ele><time>2026-04-02T14:56:19.993Z</time></trkpt><trkpt lat="43.805155956470536" lon="7.671929210081756"><ele>206.66666666666669</ele><time>2026-04-02T14:56:20.993Z</time></trkpt><trkpt lat="43.805046587273864" lon="7.67178947963995"><ele>204.0</ele><time>2026-04-02T14:56:21.993Z</time></trkpt><trkpt lat="43.80493661124993" lon="7.671631783180319"><ele>204.0</ele><time>2026-04-02T14:56:22.993Z</time></trkpt><trkpt lat="43.80483009698207" lon="7.671488253238827"><ele>204.0</ele><time>2026-04-02T14:56:23.992Z</time></trkpt><trkpt lat="43.804743679085455" lon="7.671343000562898"><ele>204.0</ele><time>2026-04-02T14:56:24.992Z</time></trkpt><trkpt lat="43.80466700779737" lon="7.6712043799805"><ele>204.0</ele><time>2026-04-02T14:56:25.992Z</time></trkpt><trkpt lat="43.80458714198813" lon="7.671075225824574"><ele>203.75</ele><time>2026-04-02T14:56:26.995Z</time></trkpt><trkpt lat="43.804541184034285" lon="7.670903485835384"><ele>203.5</ele><time>2026-04-02T14:56:27.995Z</time></trkpt><trkpt lat="43.80445650626422" lon="7.6707460344341"><ele>203.25</ele><time>2026-04-02T14:56:28.995Z</time></trkpt><trkpt lat="43.80436320516709" lon="7.670583605116442"><ele>203.0</ele><time>2026-04-02T14:56:29.995Z</time></trkpt><trkpt lat="43.80425324487732" lon="7.670464429406652"><ele>203.0</ele><time>2026-04-02T14:56:30.995Z</time></trkpt><trkpt lat="43.80415663268159" lon="7.670355930777379"><ele>203.0</ele><time>2026-04-02T14:56:31.995Z</time></trkpt><trkpt lat="43.80407320073422" lon="7.670243001171606"><ele>203.0</ele><time>2026-04-02T14:56:32.995Z</time></trkpt><trkpt lat="43.80400335422298" lon="7.670148970684761"><ele>203.0</ele><time>2026-04-02T14:56:33.995Z</time></trkpt><trkpt lat="43.804004095937245" lon="7.670037105864939"><ele>203.0</ele><time>2026-04-02T14:56:34.995Z</time></trkpt><trkpt lat="43.804027415747335" lon="7.669955893441454"><ele>204.0</ele><time>2026-04-02T14:56:35.995Z</time></trkpt><trkpt lat="43.80409330666018" lon="7.669880447957512"><ele>205.0</ele><time>2026-04-02T14:56:36.995Z</time></trkpt><trkpt lat="43.804244600732055" lon="7.669884083406217"><ele>206.0</ele><time>2026-04-02T14:56:37.995Z</time></trkpt><trkpt lat="43.80434590244712" lon="7.669893606787736"><ele>207.0</ele><time>2026-04-02T14:56:38.995Z</time></trkpt><trkpt lat="43.80443332158827" lon="7.669914442000991"><ele>208.0</ele><time>2026-04-02T14:56:39.995Z</time></trkpt><trkpt lat="43.804497647816405" lon="7.669934705274208"><ele>209.0</ele><time>2026-04-02T14:56:40.995Z</time></trkpt><trkpt lat="43.80457222987794" lon="7.669974162371485"><ele>209.0</ele><time>2026-04-02T14:56:42.995Z</time></trkpt><trkpt lat="43.80451652744932" lon="7.669918910613409"><ele>209.0</ele><time>2026-04-02T14:57:01.994Z</time></trkpt></trkseg><trkseg><trkpt lat="43.78120758870689" lon="7.665228127516503"><ele>12.0</ele><time>2026-04-03T03:14:27.603Z</time></trkpt></trkseg></trk></gpx>